AFR185 VHHH-LFPG
Flight info
| Callsign | AFR185 |
|---|---|
| Flight time | N/A |
| Altitude | 34100 |
| Route | BEKOL A461 SHL W22 TEPID W24 OSNOV G586 QP B330 ELKAL W179 IGNAK/K0928S1070 W179 WFX/K0930S1040 W179 OMBON/K0919S1100 Y1 SADAN W186 KAMUD/K0895F380 L141 TISIB L163 SR N193 OGOLI T898 DARVA/N0489F380 B476 METKA L88 RASAM N199 EDATA M11 MATAL/N0493F400 M11 REBLO DCT CRM DCT MAKOL Q12 GOGAR Q18 DOLAP DCT ROTAR DCT SRN DCT CERVI DCT MOLUS DCT UNKIR/N0490F380 DCT GIVRI DCT TINIL |
| Aircraft | A359/H-SDE2E3GHIJ3J4J5LM1ORWXY/LB1D1 |
Departure
| Time | 2026-05-07 14:38 |
|---|---|
| Airport | Hong Kong International Airport (VHHH) |
Arrival
| Time | N/A |
|---|---|
| Airport | Charles de Gaulle International Airport (LFPG) |
| Time | Latitude | Longitude | Altitude | Speed | Heading |
|---|---|---|---|---|---|
| 2026-05-07 13:59 | 22.31386 | 113.92799 | 38 ft | 0 kts | 161° |
| 2026-05-07 14:22 | 22.31387 | 113.92799 | 37 ft | 2 kts | 161° |
| 2026-05-07 14:22 | 22.31412 | 113.92790 | 37 ft | 4 kts | 161° |
| 2026-05-07 14:22 | 22.31437 | 113.92780 | 37 ft | 3 kts | 161° |
| 2026-05-07 14:22 | 22.31458 | 113.92774 | 37 ft | 4 kts | 186° |
| 2026-05-07 14:23 | 22.31480 | 113.92784 | 36 ft | 4 kts | 234° |
| 2026-05-07 14:23 | 22.31492 | 113.92810 | 36 ft | 4 kts | 251° |
| 2026-05-07 14:23 | 22.31500 | 113.92836 | 36 ft | 4 kts | 251° |
| 2026-05-07 14:23 | 22.31505 | 113.92849 | 37 ft | 0 kts | 251° |
| 2026-05-07 14:26 | 22.31499 | 113.92833 | 36 ft | 5 kts | 251° |
| 2026-05-07 14:26 | 22.31488 | 113.92784 | 38 ft | 8 kts | 266° |
| 2026-05-07 14:26 | 22.31504 | 113.92730 | 38 ft | 8 kts | 294° |
| 2026-05-07 14:27 | 22.31528 | 113.92675 | 38 ft | 8 kts | 296° |
| 2026-05-07 14:27 | 22.31556 | 113.92613 | 38 ft | 11 kts | 296° |
| 2026-05-07 14:27 | 22.31596 | 113.92524 | 38 ft | 14 kts | 296° |
| 2026-05-07 14:27 | 22.31638 | 113.92429 | 38 ft | 14 kts | 292° |
| 2026-05-07 14:28 | 22.31628 | 113.92329 | 37 ft | 14 kts | 251° |
| 2026-05-07 14:28 | 22.31596 | 113.92229 | 38 ft | 14 kts | 251° |
| 2026-05-07 14:28 | 22.31563 | 113.92126 | 38 ft | 15 kts | 251° |
| 2026-05-07 14:28 | 22.31531 | 113.92070 | 38 ft | 7 kts | 214° |
| 2026-05-07 14:29 | 22.31478 | 113.92076 | 38 ft | 9 kts | 162° |
| 2026-05-07 14:29 | 22.31401 | 113.92104 | 38 ft | 15 kts | 162° |
| 2026-05-07 14:29 | 22.31289 | 113.92146 | 38 ft | 18 kts | 161° |
| 2026-05-07 14:29 | 22.31174 | 113.92188 | 38 ft | 17 kts | 161° |
| 2026-05-07 14:30 | 22.31059 | 113.92231 | 38 ft | 17 kts | 161° |
| 2026-05-07 14:30 | 22.30945 | 113.92273 | 38 ft | 17 kts | 161° |
| 2026-05-07 14:30 | 22.30831 | 113.92316 | 38 ft | 17 kts | 161° |
| 2026-05-07 14:30 | 22.30738 | 113.92344 | 38 ft | 11 kts | 184° |
| 2026-05-07 14:31 | 22.30698 | 113.92286 | 38 ft | 10 kts | 252° |
| 2026-05-07 14:31 | 22.30674 | 113.92207 | 38 ft | 13 kts | 251° |
| 2026-05-07 14:31 | 22.30640 | 113.92102 | 38 ft | 15 kts | 250° |
| 2026-05-07 14:31 | 22.30604 | 113.91993 | 38 ft | 16 kts | 250° |
| 2026-05-07 14:32 | 22.30569 | 113.91882 | 38 ft | 16 kts | 251° |
| 2026-05-07 14:32 | 22.30532 | 113.91767 | 38 ft | 17 kts | 251° |
| 2026-05-07 14:32 | 22.30490 | 113.91633 | 38 ft | 20 kts | 251° |
| 2026-05-07 14:32 | 22.30441 | 113.91485 | 38 ft | 22 kts | 250° |
| 2026-05-07 14:33 | 22.30388 | 113.91325 | 38 ft | 23 kts | 250° |
| 2026-05-07 14:33 | 22.30336 | 113.91164 | 38 ft | 23 kts | 251° |
| 2026-05-07 14:33 | 22.30286 | 113.91006 | 38 ft | 22 kts | 251° |
| 2026-05-07 14:33 | 22.30237 | 113.90846 | 38 ft | 22 kts | 251° |
| 2026-05-07 14:34 | 22.30187 | 113.90688 | 38 ft | 22 kts | 251° |
| 2026-05-07 14:34 | 22.30134 | 113.90531 | 38 ft | 22 kts | 250° |
| 2026-05-07 14:34 | 22.30083 | 113.90374 | 38 ft | 22 kts | 250° |
| 2026-05-07 14:34 | 22.30032 | 113.90218 | 38 ft | 22 kts | 251° |
| 2026-05-07 14:35 | 22.29982 | 113.90062 | 38 ft | 22 kts | 250° |
| 2026-05-07 14:35 | 22.29931 | 113.89907 | 38 ft | 22 kts | 250° |
| 2026-05-07 14:35 | 22.29888 | 113.89772 | 38 ft | 15 kts | 246° |
| 2026-05-07 14:35 | 22.29810 | 113.89742 | 38 ft | 11 kts | 167° |
| 2026-05-07 14:36 | 22.29734 | 113.89768 | 38 ft | 12 kts | 161° |
| 2026-05-07 14:36 | 22.29653 | 113.89797 | 36 ft | 12 kts | 161° |
| 2026-05-07 14:36 | 22.29635 | 113.89850 | 36 ft | 7 kts | 69° |
| 2026-05-07 14:36 | 22.29636 | 113.89852 | 36 ft | 0 kts | 70° |
| 2026-05-07 14:37 | 22.29741 | 113.90176 | 36 ft | 75 kts | 70° |
| 2026-05-07 14:37 | 22.29977 | 113.90909 | 37 ft | 130 kts | 71° |
| 2026-05-07 14:38 | 22.30334 | 113.92000 | 88 ft | 172 kts | 70° |
| 2026-05-07 14:38 | 22.30727 | 113.93180 | 748 ft | 168 kts | 71° |
| 2026-05-07 14:38 | 22.31133 | 113.94411 | 1228 ft | 180 kts | 71° |
| 2026-05-07 14:38 | 22.31584 | 113.95725 | 1496 ft | 192 kts | 70° |
| 2026-05-07 14:39 | 22.32067 | 113.97125 | 1741 ft | 205 kts | 71° |
| 2026-05-07 14:39 | 22.32562 | 113.98617 | 1994 ft | 216 kts | 72° |
| 2026-05-07 14:39 | 22.33062 | 114.00182 | 2312 ft | 224 kts | 72° |
| 2026-05-07 14:39 | 22.33565 | 114.01795 | 2708 ft | 229 kts | 72° |
| 2026-05-07 14:40 | 22.33921 | 114.03487 | 3096 ft | 233 kts | 87° |
| 2026-05-07 14:40 | 22.33664 | 114.05202 | 3512 ft | 235 kts | 113° |
| 2026-05-07 14:40 | 22.32855 | 114.06747 | 3890 ft | 239 kts | 130° |
| 2026-05-07 14:40 | 22.31613 | 114.07930 | 4323 ft | 241 kts | 150° |
| 2026-05-07 14:41 | 22.30040 | 114.08635 | 4633 ft | 250 kts | 167° |
| 2026-05-07 14:41 | 22.28316 | 114.08818 | 5063 ft | 252 kts | 181° |
| 2026-05-07 14:41 | 22.26514 | 114.08780 | 5334 ft | 264 kts | 182° |
| 2026-05-07 14:41 | 22.24644 | 114.08731 | 5701 ft | 272 kts | 182° |
| 2026-05-07 14:42 | 22.22739 | 114.08694 | 6163 ft | 275 kts | 182° |
| 2026-05-07 14:42 | 22.20809 | 114.08667 | 6649 ft | 278 kts | 182° |
| 2026-05-07 14:42 | 22.18876 | 114.08882 | 7086 ft | 283 kts | 165° |
| 2026-05-07 14:42 | 22.17151 | 114.09909 | 7539 ft | 288 kts | 137° |
| 2026-05-07 14:43 | 22.16040 | 114.11707 | 8007 ft | 293 kts | 109° |
| 2026-05-07 14:43 | 22.15681 | 114.13881 | 8497 ft | 297 kts | 94° |
| 2026-05-07 14:43 | 22.15559 | 114.16085 | 8994 ft | 300 kts | 93° |
| 2026-05-07 14:43 | 22.15447 | 114.18343 | 9497 ft | 303 kts | 94° |
| 2026-05-07 14:44 | 22.15323 | 114.20624 | 9613 ft | 304 kts | 94° |
| 2026-05-07 14:44 | 22.15191 | 114.22902 | 9726 ft | 306 kts | 94° |
| 2026-05-07 14:44 | 22.15146 | 114.25216 | 10087 ft | 311 kts | 85° |
| 2026-05-07 14:44 | 22.15517 | 114.27555 | 10332 ft | 323 kts | 77° |
| 2026-05-07 14:45 | 22.16045 | 114.29965 | 10531 ft | 336 kts | 76° |
| 2026-05-07 14:45 | 22.16599 | 114.32459 | 10756 ft | 348 kts | 76° |
| 2026-05-07 14:45 | 22.17160 | 114.35019 | 10976 ft | 359 kts | 76° |
| 2026-05-07 14:45 | 22.17742 | 114.37669 | 11194 ft | 369 kts | 75° |
| 2026-05-07 14:46 | 22.18686 | 114.40276 | 11362 ft | 379 kts | 58° |
| 2026-05-07 14:46 | 22.20433 | 114.42417 | 11517 ft | 386 kts | 36° |
| 2026-05-07 14:46 | 22.22828 | 114.43734 | 11679 ft | 391 kts | 14° |
| 2026-05-07 14:46 | 22.25529 | 114.44033 | 11822 ft | 394 kts | 353° |
| 2026-05-07 14:47 | 22.28168 | 114.43268 | 12028 ft | 395 kts | 332° |
| 2026-05-07 14:47 | 22.30605 | 114.41880 | 12343 ft | 398 kts | 332° |
| 2026-05-07 14:47 | 22.33243 | 114.40933 | 12666 ft | 403 kts | 345° |
| 2026-05-07 14:47 | 22.35993 | 114.40305 | 13003 ft | 406 kts | 347° |
| 2026-05-07 14:48 | 22.38779 | 114.39741 | 13332 ft | 408 kts | 347° |
| 2026-05-07 14:48 | 22.41582 | 114.39193 | 13667 ft | 410 kts | 348° |
| 2026-05-07 14:48 | 22.44397 | 114.38640 | 13974 ft | 411 kts | 346° |
| 2026-05-07 14:48 | 22.47104 | 114.37712 | 14339 ft | 407 kts | 332° |
| 2026-05-07 14:49 | 22.49431 | 114.36021 | 14631 ft | 403 kts | 315° |
| 2026-05-07 14:49 | 22.51157 | 114.33647 | 14892 ft | 402 kts | 297° |
| 2026-05-07 14:49 | 22.52126 | 114.30868 | 15154 ft | 402 kts | 281° |
| 2026-05-07 14:49 | 22.52343 | 114.27858 | 15435 ft | 403 kts | 270° |
| 2026-05-07 14:50 | 22.52547 | 114.24793 | 15715 ft | 405 kts | 277° |
| 2026-05-07 14:50 | 22.52982 | 114.21780 | 15999 ft | 406 kts | 279° |
| 2026-05-07 14:50 | 22.53477 | 114.18807 | 16256 ft | 408 kts | 282° |
| 2026-05-07 14:50 | 22.54399 | 114.15858 | 16521 ft | 411 kts | 296° |
| 2026-05-07 14:51 | 22.55996 | 114.13337 | 16779 ft | 415 kts | 311° |
| 2026-05-07 14:51 | 22.58243 | 114.11357 | 17042 ft | 420 kts | 326° |
| 2026-05-07 14:51 | 22.60788 | 114.09791 | 17292 ft | 423 kts | 330° |
| 2026-05-07 14:51 | 22.63443 | 114.08389 | 17560 ft | 425 kts | 333° |
| 2026-05-07 14:52 | 22.66142 | 114.07060 | 17832 ft | 427 kts | 334° |
| 2026-05-07 14:52 | 22.68856 | 114.05743 | 18089 ft | 429 kts | 334° |
| 2026-05-07 14:52 | 22.71582 | 114.04407 | 18324 ft | 431 kts | 333° |
| 2026-05-07 14:52 | 22.74308 | 114.03049 | 18551 ft | 432 kts | 333° |
| 2026-05-07 14:53 | 22.77035 | 114.01668 | 18786 ft | 433 kts | 333° |
| 2026-05-07 14:53 | 22.79760 | 114.00274 | 19025 ft | 434 kts | 332° |
| 2026-05-07 14:53 | 22.82488 | 113.98869 | 19272 ft | 434 kts | 332° |
| 2026-05-07 14:53 | 22.85216 | 113.97459 | 19500 ft | 435 kts | 332° |
| 2026-05-07 14:54 | 22.87964 | 113.96039 | 19713 ft | 437 kts | 332° |
| 2026-05-07 14:54 | 22.90712 | 113.94620 | 19934 ft | 438 kts | 332° |
| 2026-05-07 14:54 | 22.93470 | 113.93195 | 20157 ft | 439 kts | 332° |
| 2026-05-07 14:54 | 22.96229 | 113.91759 | 20391 ft | 440 kts | 332° |
| 2026-05-07 14:55 | 22.98992 | 113.90316 | 20618 ft | 441 kts | 332° |
| 2026-05-07 14:55 | 23.01766 | 113.88867 | 20849 ft | 443 kts | 332° |
| 2026-05-07 14:55 | 23.04543 | 113.87417 | 21073 ft | 444 kts | 332° |
| 2026-05-07 14:55 | 23.07300 | 113.85899 | 21300 ft | 444 kts | 328° |
| 2026-05-07 14:56 | 23.09017 | 113.84699 | 21454 ft | 443 kts | 322° |
| 2026-05-07 14:56 | 23.11412 | 113.82596 | 21699 ft | 443 kts | 317° |
| 2026-05-07 14:56 | 23.13712 | 113.80354 | 21930 ft | 444 kts | 315° |
| 2026-05-07 14:56 | 23.15953 | 113.78050 | 22217 ft | 444 kts | 314° |
| 2026-05-07 14:57 | 23.18170 | 113.75711 | 22452 ft | 445 kts | 314° |
| 2026-05-07 14:57 | 23.20387 | 113.73354 | 22641 ft | 448 kts | 314° |
| 2026-05-07 14:57 | 23.22627 | 113.70975 | 22820 ft | 451 kts | 314° |
| 2026-05-07 14:57 | 23.24880 | 113.68592 | 23078 ft | 452 kts | 314° |
| 2026-05-07 14:58 | 23.27140 | 113.66211 | 23322 ft | 453 kts | 314° |
| 2026-05-07 14:58 | 23.29414 | 113.63822 | 23561 ft | 454 kts | 314° |
| 2026-05-07 14:58 | 23.31692 | 113.61432 | 23747 ft | 456 kts | 314° |
| 2026-05-07 14:58 | 23.33977 | 113.59036 | 23949 ft | 457 kts | 314° |
| 2026-05-07 14:59 | 23.36268 | 113.56633 | 24153 ft | 458 kts | 314° |
| 2026-05-07 14:59 | 23.38567 | 113.54221 | 24366 ft | 459 kts | 314° |
| 2026-05-07 14:59 | 23.40838 | 113.51835 | 24582 ft | 460 kts | 314° |
| 2026-05-07 14:59 | 23.43146 | 113.49409 | 24812 ft | 461 kts | 314° |
| 2026-05-07 15:00 | 23.45451 | 113.46985 | 25044 ft | 462 kts | 314° |
| 2026-05-07 15:00 | 23.47768 | 113.44546 | 25277 ft | 463 kts | 314° |
| 2026-05-07 15:00 | 23.50085 | 113.42106 | 25514 ft | 464 kts | 314° |
| 2026-05-07 15:00 | 23.52410 | 113.39657 | 25800 ft | 465 kts | 314° |
| 2026-05-07 15:01 | 23.54740 | 113.37203 | 26047 ft | 466 kts | 314° |
| 2026-05-07 15:01 | 23.57064 | 113.34729 | 26287 ft | 468 kts | 314° |
| 2026-05-07 15:01 | 23.59384 | 113.32231 | 26516 ft | 470 kts | 314° |
| 2026-05-07 15:01 | 23.61707 | 113.29721 | 26766 ft | 471 kts | 314° |
| 2026-05-07 15:02 | 23.64034 | 113.27181 | 27028 ft | 472 kts | 312° |
| 2026-05-07 15:02 | 23.66141 | 113.24432 | 27285 ft | 472 kts | 304° |
| 2026-05-07 15:02 | 23.67871 | 113.21389 | 27530 ft | 473 kts | 297° |
| 2026-05-07 15:02 | 23.69355 | 113.18182 | 27776 ft | 474 kts | 295° |
| 2026-05-07 15:03 | 23.70757 | 113.14918 | 28029 ft | 476 kts | 294° |
| 2026-05-07 15:03 | 23.72097 | 113.11668 | 28240 ft | 477 kts | 294° |
| 2026-05-07 15:03 | 23.73450 | 113.08352 | 28493 ft | 478 kts | 294° |
| 2026-05-07 15:03 | 23.75011 | 113.05145 | 28728 ft | 480 kts | 301° |
| 2026-05-07 15:04 | 23.76966 | 113.02174 | 28921 ft | 483 kts | 309° |
| 2026-05-07 15:04 | 23.79317 | 112.99560 | 29203 ft | 484 kts | 317° |
| 2026-05-07 15:04 | 23.82033 | 112.97377 | 29554 ft | 486 kts | 326° |
| 2026-05-07 15:04 | 23.85051 | 112.95693 | 29863 ft | 489 kts | 335° |
| 2026-05-07 15:05 | 23.88265 | 112.94425 | 30013 ft | 493 kts | 338° |
| 2026-05-07 15:05 | 23.91543 | 112.93293 | 30220 ft | 494 kts | 340° |
| 2026-05-07 15:05 | 23.94840 | 112.92230 | 30503 ft | 493 kts | 340° |
| 2026-05-07 15:05 | 23.98127 | 112.91185 | 30781 ft | 491 kts | 340° |
| 2026-05-07 15:06 | 24.01401 | 112.90133 | 31037 ft | 490 kts | 340° |
| 2026-05-07 15:06 | 24.04666 | 112.89068 | 31287 ft | 489 kts | 340° |
| 2026-05-07 15:06 | 24.07922 | 112.87995 | 31536 ft | 488 kts | 339° |
| 2026-05-07 15:06 | 24.11166 | 112.86918 | 31787 ft | 487 kts | 339° |
| 2026-05-07 15:07 | 24.14408 | 112.85837 | 32010 ft | 486 kts | 339° |
| 2026-05-07 15:07 | 24.17640 | 112.84762 | 32218 ft | 486 kts | 339° |
| 2026-05-07 15:07 | 24.20884 | 112.83683 | 32412 ft | 486 kts | 339° |
| 2026-05-07 15:07 | 24.24112 | 112.82608 | 32668 ft | 485 kts | 339° |
| 2026-05-07 15:08 | 24.27337 | 112.81534 | 32939 ft | 483 kts | 339° |
| 2026-05-07 15:08 | 24.30539 | 112.80467 | 33169 ft | 481 kts | 339° |
| 2026-05-07 15:08 | 24.33745 | 112.79398 | 33333 ft | 481 kts | 339° |
| 2026-05-07 15:08 | 24.36948 | 112.78320 | 33524 ft | 480 kts | 338° |
| 2026-05-07 15:09 | 24.40038 | 112.76977 | 33653 ft | 477 kts | 330° |
| 2026-05-07 15:09 | 24.42903 | 112.75187 | 33786 ft | 472 kts | 322° |
| 2026-05-07 15:09 | 24.45432 | 112.72988 | 33976 ft | 467 kts | 314° |
| 2026-05-07 15:09 | 24.47622 | 112.70375 | 34086 ft | 466 kts | 305° |
| 2026-05-07 15:10 | 24.50716 | 112.64151 | 34089 ft | 466 kts | 288° |
| 2026-05-07 15:10 | 24.51838 | 112.57172 | 34093 ft | 466 kts | 271° |
| 2026-05-07 15:11 | 24.51630 | 112.50046 | 34093 ft | 466 kts | 273° |
| 2026-05-07 15:11 | 24.52091 | 112.42938 | 34094 ft | 466 kts | 275° |
| 2026-05-07 15:12 | 24.52721 | 112.35849 | 34096 ft | 467 kts | 276° |
| 2026-05-07 15:12 | 24.53404 | 112.28799 | 34089 ft | 467 kts | 276° |
| 2026-05-07 15:13 | 24.54092 | 112.21713 | 34095 ft | 466 kts | 276° |
| 2026-05-07 15:13 | 24.54769 | 112.14631 | 34095 ft | 467 kts | 276° |
| 2026-05-07 15:14 | 24.55440 | 112.07545 | 34093 ft | 467 kts | 276° |
| 2026-05-07 15:14 | 24.56105 | 112.00450 | 34095 ft | 467 kts | 276° |
| 2026-05-07 15:15 | 24.56767 | 111.93351 | 34096 ft | 467 kts | 276° |
| 2026-05-07 15:15 | 24.57425 | 111.86262 | 34096 ft | 467 kts | 276° |
| 2026-05-07 15:16 | 24.58082 | 111.79163 | 34100 ft | 467 kts | 276° |
| 2026-05-07 15:16 | 24.58734 | 111.72079 | 34099 ft | 466 kts | 276° |
| 2026-05-07 15:17 | 24.59382 | 111.65003 | 34098 ft | 465 kts | 276° |
| 2026-05-07 15:17 | 24.60026 | 111.57928 | 34097 ft | 466 kts | 276° |
| 2026-05-07 15:18 | 24.60668 | 111.50839 | 34106 ft | 466 kts | 276° |
| 2026-05-07 15:18 | 24.61306 | 111.43760 | 34101 ft | 466 kts | 276° |
| 2026-05-07 15:19 | 24.61941 | 111.36677 | 34102 ft | 466 kts | 276° |
| 2026-05-07 15:19 | 24.62572 | 111.29597 | 34102 ft | 465 kts | 276° |
| 2026-05-07 15:20 | 24.63193 | 111.22515 | 34101 ft | 466 kts | 276° |
| 2026-05-07 15:20 | 24.63797 | 111.15477 | 34100 ft | 465 kts | 276° |
| 2026-05-07 15:21 | 24.64406 | 111.08349 | 34104 ft | 466 kts | 276° |
| 2026-05-07 15:21 | 24.65006 | 111.01308 | 34101 ft | 465 kts | 276° |
| 2026-05-07 15:22 | 24.65608 | 110.94228 | 34098 ft | 465 kts | 276° |
| 2026-05-07 15:22 | 24.66207 | 110.87148 | 34094 ft | 465 kts | 276° |
| 2026-05-07 15:23 | 24.67598 | 110.80224 | 34090 ft | 465 kts | 290° |
| 2026-05-07 15:23 | 24.70757 | 110.74027 | 34091 ft | 469 kts | 307° |
| 2026-05-07 15:24 | 24.75276 | 110.68814 | 34088 ft | 472 kts | 313° |
| 2026-05-07 15:24 | 24.80045 | 110.63840 | 34096 ft | 472 kts | 314° |
| 2026-05-07 15:25 | 24.84824 | 110.58889 | 34095 ft | 471 kts | 313° |
| 2026-05-07 15:25 | 24.89571 | 110.53910 | 34096 ft | 471 kts | 313° |
| 2026-05-07 15:26 | 24.94309 | 110.48906 | 34104 ft | 471 kts | 313° |
| 2026-05-07 15:26 | 24.99009 | 110.43931 | 34103 ft | 472 kts | 313° |
| 2026-05-07 15:27 | 25.03752 | 110.38919 | 34103 ft | 473 kts | 313° |
| 2026-05-07 15:27 | 25.08503 | 110.33900 | 34120 ft | 473 kts | 313° |
| 2026-05-07 15:28 | 25.13252 | 110.28877 | 34139 ft | 473 kts | 313° |
| 2026-05-07 15:28 | 25.18003 | 110.23847 | 34140 ft | 473 kts | 313° |
| 2026-05-07 15:29 | 25.22759 | 110.18818 | 34143 ft | 474 kts | 313° |
| 2026-05-07 15:29 | 25.27550 | 110.13805 | 34146 ft | 474 kts | 313° |
| 2026-05-07 15:30 | 25.32344 | 110.08792 | 34119 ft | 474 kts | 313° |
| 2026-05-07 15:30 | 25.37129 | 110.03777 | 34132 ft | 474 kts | 313° |
| 2026-05-07 15:31 | 25.41884 | 109.98783 | 34129 ft | 474 kts | 313° |
| 2026-05-07 15:31 | 25.46668 | 109.93751 | 34131 ft | 474 kts | 313° |
| 2026-05-07 15:32 | 25.51448 | 109.88722 | 34143 ft | 474 kts | 313° |
| 2026-05-07 15:32 | 25.56219 | 109.83698 | 34142 ft | 474 kts | 313° |
| 2026-05-07 15:33 | 25.60993 | 109.78654 | 34155 ft | 474 kts | 313° |
| 2026-05-07 15:33 | 25.65774 | 109.73600 | 34158 ft | 475 kts | 313° |
| 2026-05-07 15:34 | 25.70560 | 109.68534 | 34157 ft | 476 kts | 313° |
| 2026-05-07 15:34 | 25.75194 | 109.63322 | 34171 ft | 472 kts | 306° |
| 2026-05-07 15:35 | 25.78533 | 109.57139 | 34172 ft | 466 kts | 290° |
| 2026-05-07 15:35 | 25.80574 | 109.50338 | 34181 ft | 464 kts | 285° |
| 2026-05-07 15:36 | 25.82367 | 109.43441 | 34181 ft | 465 kts | 284° |
| 2026-05-07 15:36 | 25.84135 | 109.36538 | 34201 ft | 464 kts | 284° |
| 2026-05-07 15:37 | 25.85923 | 109.29650 | 34193 ft | 464 kts | 284° |
| 2026-05-07 15:37 | 25.87722 | 109.22769 | 34197 ft | 463 kts | 284° |
| 2026-05-07 15:38 | 25.89520 | 109.15898 | 34203 ft | 463 kts | 284° |
| 2026-05-07 15:38 | 25.91316 | 109.09012 | 34209 ft | 464 kts | 284° |
| 2026-05-07 15:39 | 25.93111 | 109.02132 | 34218 ft | 464 kts | 284° |
| 2026-05-07 15:39 | 25.94937 | 108.95266 | 34225 ft | 464 kts | 285° |
| 2026-05-07 15:40 | 25.96761 | 108.88426 | 34227 ft | 464 kts | 284° |
| 2026-05-07 15:40 | 25.98587 | 108.81547 | 34228 ft | 464 kts | 284° |
| 2026-05-07 15:41 | 26.00408 | 108.74665 | 34232 ft | 464 kts | 284° |
| 2026-05-07 15:41 | 26.02233 | 108.67788 | 34238 ft | 464 kts | 284° |
| 2026-05-07 15:42 | 26.04065 | 108.60907 | 34234 ft | 464 kts | 284° |
| 2026-05-07 15:42 | 26.05891 | 108.54024 | 34229 ft | 464 kts | 284° |
| 2026-05-07 15:43 | 26.07712 | 108.47140 | 34237 ft | 464 kts | 284° |
| 2026-05-07 15:43 | 26.09603 | 108.40322 | 34241 ft | 465 kts | 289° |
| 2026-05-07 15:44 | 26.12239 | 108.33751 | 34245 ft | 465 kts | 292° |
| 2026-05-07 15:44 | 26.14583 | 108.28311 | 34230 ft | 465 kts | 293° |
| 2026-05-07 15:45 | 26.17410 | 108.21825 | 34237 ft | 465 kts | 293° |
| 2026-05-07 15:45 | 26.20222 | 108.15337 | 34257 ft | 465 kts | 293° |
| 2026-05-07 15:46 | 26.24421 | 108.05604 | 34245 ft | 465 kts | 293° |
| 2026-05-07 15:47 | 26.27196 | 107.99151 | 34261 ft | 465 kts | 293° |
| 2026-05-07 15:47 | 26.29985 | 107.92655 | 34262 ft | 465 kts | 293° |
| 2026-05-07 15:48 | 26.32772 | 107.86158 | 34259 ft | 465 kts | 293° |
| 2026-05-07 15:48 | 26.35553 | 107.79665 | 34275 ft | 462 kts | 293° |
| 2026-05-07 15:49 | 26.38315 | 107.73205 | 34286 ft | 461 kts | 293° |
| 2026-05-07 15:49 | 26.41064 | 107.66763 | 34284 ft | 459 kts | 293° |
| 2026-05-07 15:50 | 26.43811 | 107.60322 | 34297 ft | 459 kts | 292° |
| 2026-05-07 15:50 | 26.46550 | 107.53886 | 34295 ft | 459 kts | 293° |
| 2026-05-07 15:51 | 26.49291 | 107.47442 | 34293 ft | 459 kts | 292° |
| 2026-05-07 15:51 | 26.52018 | 107.40994 | 34304 ft | 459 kts | 292° |
| 2026-05-07 15:52 | 26.54739 | 107.34549 | 34303 ft | 458 kts | 292° |
| 2026-05-07 15:52 | 26.57460 | 107.28119 | 34300 ft | 458 kts | 292° |
| 2026-05-07 15:53 | 26.60180 | 107.21690 | 34301 ft | 458 kts | 292° |
| 2026-05-07 15:53 | 26.62899 | 107.15254 | 34303 ft | 458 kts | 292° |
| 2026-05-07 15:54 | 26.65607 | 107.08862 | 34306 ft | 458 kts | 292° |
| 2026-05-07 15:54 | 26.68337 | 107.02441 | 34301 ft | 457 kts | 292° |
| 2026-05-07 15:55 | 26.71066 | 106.96015 | 34298 ft | 457 kts | 292° |
| 2026-05-07 15:55 | 26.73784 | 106.89599 | 34293 ft | 457 kts | 292° |
| 2026-05-07 15:56 | 26.76498 | 106.83186 | 34293 ft | 455 kts | 292° |
| 2026-05-07 15:56 | 26.79936 | 106.77207 | 34294 ft | 462 kts | 306° |
| 2026-05-07 15:57 | 26.84577 | 106.72160 | 34286 ft | 467 kts | 313° |
| 2026-05-07 15:57 | 26.89478 | 106.67362 | 34283 ft | 468 kts | 314° |
| 2026-05-07 15:58 | 26.94383 | 106.62621 | 34281 ft | 468 kts | 314° |
| 2026-05-07 15:58 | 26.99296 | 106.57831 | 34282 ft | 468 kts | 314° |
| 2026-05-07 15:59 | 27.04205 | 106.53014 | 34281 ft | 468 kts | 313° |
| 2026-05-07 15:59 | 27.09100 | 106.48197 | 34295 ft | 468 kts | 313° |
| 2026-05-07 16:00 | 27.13993 | 106.43379 | 34275 ft | 467 kts | 313° |
| 2026-05-07 16:00 | 27.18867 | 106.38562 | 34285 ft | 466 kts | 313° |
| 2026-05-07 16:01 | 27.23745 | 106.33762 | 34290 ft | 467 kts | 313° |
| 2026-05-07 16:01 | 27.28668 | 106.28994 | 34283 ft | 468 kts | 314° |
| 2026-05-07 16:02 | 27.33600 | 106.24212 | 34281 ft | 468 kts | 313° |
| 2026-05-07 16:02 | 27.38519 | 106.19421 | 34285 ft | 467 kts | 313° |
| 2026-05-07 16:03 | 27.43431 | 106.14623 | 34280 ft | 468 kts | 313° |
| 2026-05-07 16:03 | 27.48347 | 106.09815 | 34284 ft | 468 kts | 313° |
| 2026-05-07 16:04 | 27.53228 | 106.05035 | 34279 ft | 468 kts | 313° |
| 2026-05-07 16:04 | 27.58175 | 106.00186 | 34284 ft | 468 kts | 313° |
| 2026-05-07 16:05 | 27.63052 | 105.95396 | 34281 ft | 468 kts | 313° |
| 2026-05-07 16:05 | 27.67965 | 105.90565 | 34285 ft | 469 kts | 313° |
| 2026-05-07 16:06 | 27.72272 | 105.85170 | 34275 ft | 459 kts | 299° |
| 2026-05-07 16:06 | 27.75018 | 105.78784 | 34286 ft | 451 kts | 286° |
| 2026-05-07 16:07 | 27.76986 | 105.72065 | 34270 ft | 451 kts | 283° |
| 2026-05-07 16:07 | 27.78825 | 105.65297 | 34275 ft | 451 kts | 284° |
| 2026-05-07 16:08 | 27.80980 | 105.58608 | 34278 ft | 456 kts | 289° |
| 2026-05-07 16:08 | 27.83477 | 105.52019 | 34278 ft | 457 kts | 290° |
| 2026-05-07 16:09 | 27.86032 | 105.45444 | 34266 ft | 457 kts | 290° |
| 2026-05-07 16:09 | 27.88587 | 105.38869 | 34269 ft | 457 kts | 290° |
| 2026-05-07 16:10 | 27.91316 | 105.32410 | 34261 ft | 459 kts | 293° |
| 2026-05-07 16:10 | 27.94275 | 105.25958 | 34265 ft | 459 kts | 293° |
| 2026-05-07 16:11 | 27.97523 | 105.19718 | 34257 ft | 465 kts | 302° |
| 2026-05-07 16:11 | 28.02169 | 105.14517 | 34254 ft | 478 kts | 319° |
| 2026-05-07 16:12 | 28.07720 | 105.10390 | 34245 ft | 482 kts | 322° |
| 2026-05-07 16:12 | 28.13455 | 105.06428 | 34235 ft | 482 kts | 322° |
| 2026-05-07 16:13 | 28.19181 | 105.02475 | 34231 ft | 481 kts | 322° |
| 2026-05-07 16:13 | 28.24890 | 104.98513 | 34234 ft | 481 kts | 322° |
| 2026-05-07 16:14 | 28.30582 | 104.94531 | 34227 ft | 481 kts | 322° |
| 2026-05-07 16:14 | 28.36278 | 104.90531 | 34233 ft | 481 kts | 322° |
| 2026-05-07 16:15 | 28.41971 | 104.86536 | 34227 ft | 481 kts | 322° |
| 2026-05-07 16:15 | 28.47628 | 104.82585 | 34226 ft | 478 kts | 322° |
| 2026-05-07 16:16 | 28.53286 | 104.78628 | 34226 ft | 477 kts | 322° |
| 2026-05-07 16:16 | 28.58937 | 104.74668 | 34223 ft | 477 kts | 321° |
| 2026-05-07 16:17 | 28.64583 | 104.70705 | 34221 ft | 477 kts | 321° |
| 2026-05-07 16:17 | 28.70232 | 104.66737 | 34221 ft | 477 kts | 322° |
| 2026-05-07 16:18 | 28.75884 | 104.62762 | 34235 ft | 478 kts | 321° |
| 2026-05-07 16:18 | 28.81531 | 104.58782 | 34229 ft | 480 kts | 321° |
| 2026-05-07 16:19 | 28.87229 | 104.54764 | 34227 ft | 481 kts | 321° |
| 2026-05-07 16:19 | 28.92900 | 104.50731 | 34230 ft | 480 kts | 321° |
| 2026-05-07 16:20 | 28.98566 | 104.46686 | 34235 ft | 480 kts | 321° |
| 2026-05-07 16:20 | 29.04233 | 104.42638 | 34254 ft | 480 kts | 321° |
| 2026-05-07 16:21 | 29.09917 | 104.38576 | 34235 ft | 482 kts | 321° |
| 2026-05-07 16:21 | 29.15610 | 104.34503 | 34238 ft | 483 kts | 321° |
| 2026-05-07 16:22 | 29.21301 | 104.30491 | 34236 ft | 486 kts | 324° |
| 2026-05-07 16:22 | 29.27718 | 104.27725 | 34237 ft | 504 kts | 341° |
| 2026-05-07 16:22 | 29.31236 | 104.27246 | 34241 ft | 515 kts | 352° |
| 2026-05-07 16:23 | 29.34838 | 104.27449 | 34272 ft | 523 kts | 359° |
| 2026-05-07 16:23 | 29.42094 | 104.28559 | 34245 ft | 528 kts | 1° |
| 2026-05-07 16:24 | 29.49365 | 104.29876 | 34245 ft | 529 kts | 2° |
| 2026-05-07 16:24 | 29.56588 | 104.31164 | 34250 ft | 529 kts | 1° |
| 2026-05-07 16:25 | 29.63864 | 104.32419 | 34262 ft | 528 kts | 1° |
| 2026-05-07 16:25 | 29.71126 | 104.33658 | 34255 ft | 527 kts | 1° |
| 2026-05-07 16:26 | 29.78421 | 104.34900 | 34254 ft | 527 kts | 1° |
| 2026-05-07 16:26 | 29.85615 | 104.36129 | 34257 ft | 526 kts | 1° |
| 2026-05-07 16:27 | 29.92870 | 104.37372 | 34257 ft | 526 kts | 0° |
| 2026-05-07 16:27 | 30.00099 | 104.38613 | 34262 ft | 525 kts | 0° |
| 2026-05-07 16:28 | 30.07332 | 104.39855 | 34266 ft | 525 kts | 0° |
| 2026-05-07 16:28 | 30.14562 | 104.41099 | 34263 ft | 525 kts | 0° |
| 2026-05-07 16:29 | 30.21783 | 104.42359 | 34273 ft | 524 kts | 0° |
| 2026-05-07 16:29 | 30.28986 | 104.43615 | 34284 ft | 524 kts | 0° |
| 2026-05-07 16:30 | 30.36212 | 104.44875 | 34286 ft | 524 kts | 0° |
| 2026-05-07 16:30 | 30.43427 | 104.46136 | 34282 ft | 524 kts | 0° |
| 2026-05-07 16:31 | 30.50639 | 104.47399 | 34279 ft | 524 kts | 0° |
| 2026-05-07 16:31 | 30.57843 | 104.48454 | 34274 ft | 516 kts | 353° |
| 2026-05-07 16:31 | 30.61388 | 104.48287 | 34269 ft | 504 kts | 344° |
| 2026-05-07 16:32 | 30.64779 | 104.47498 | 34267 ft | 493 kts | 336° |
| 2026-05-07 16:32 | 30.70219 | 104.45613 | 34270 ft | 491 kts | 333° |
| 2026-05-07 16:33 | 30.76673 | 104.43118 | 34266 ft | 487 kts | 333° |
| 2026-05-07 16:33 | 30.84150 | 104.40202 | 34265 ft | 490 kts | 335° |
| 2026-05-07 16:34 | 30.89854 | 104.39018 | 34267 ft | 504 kts | 348° |
| 2026-05-07 16:34 | 30.96895 | 104.38648 | 34260 ft | 508 kts | 351° |
| 2026-05-07 16:35 | 31.03920 | 104.38494 | 34264 ft | 507 kts | 352° |
| 2026-05-07 16:35 | 31.10967 | 104.38354 | 34262 ft | 506 kts | 352° |
| 2026-05-07 16:36 | 31.18012 | 104.38184 | 34267 ft | 506 kts | 352° |
| 2026-05-07 16:36 | 31.25054 | 104.37998 | 34267 ft | 506 kts | 352° |
| 2026-05-07 16:37 | 31.32079 | 104.37682 | 34270 ft | 505 kts | 350° |
| 2026-05-07 16:37 | 31.39100 | 104.37221 | 34273 ft | 505 kts | 350° |
| 2026-05-07 16:38 | 31.46112 | 104.36772 | 34274 ft | 505 kts | 350° |
| 2026-05-07 16:38 | 31.53138 | 104.36351 | 34307 ft | 505 kts | 351° |
| 2026-05-07 16:39 | 31.60177 | 104.35938 | 34292 ft | 507 kts | 351° |
| 2026-05-07 16:39 | 31.67238 | 104.35526 | 34306 ft | 508 kts | 351° |
| 2026-05-07 16:40 | 31.74302 | 104.35117 | 34316 ft | 507 kts | 351° |
| 2026-05-07 16:40 | 31.81350 | 104.34718 | 34335 ft | 508 kts | 351° |
| 2026-05-07 16:41 | 31.88397 | 104.34361 | 34330 ft | 509 kts | 351° |
| 2026-05-07 16:41 | 31.95478 | 104.34010 | 34340 ft | 510 kts | 351° |
| 2026-05-07 16:42 | 32.02555 | 104.33648 | 34347 ft | 509 kts | 351° |
| 2026-05-07 16:42 | 32.09637 | 104.33284 | 34352 ft | 510 kts | 352° |
| 2026-05-07 16:43 | 32.16770 | 104.32917 | 34345 ft | 516 kts | 352° |
| 2026-05-07 16:43 | 32.23939 | 104.32549 | 34352 ft | 515 kts | 352° |
| 2026-05-07 16:44 | 32.31110 | 104.32179 | 34365 ft | 516 kts | 352° |
| 2026-05-07 16:44 | 32.38276 | 104.31811 | 34372 ft | 517 kts | 351° |
| 2026-05-07 16:45 | 32.45470 | 104.31447 | 34378 ft | 517 kts | 351° |
| 2026-05-07 16:45 | 32.52655 | 104.31096 | 34354 ft | 517 kts | 352° |
| 2026-05-07 16:46 | 32.59856 | 104.30741 | 34373 ft | 517 kts | 352° |
| 2026-05-07 16:46 | 32.67051 | 104.30407 | 34364 ft | 518 kts | 352° |
| 2026-05-07 16:47 | 32.74251 | 104.30064 | 34374 ft | 518 kts | 352° |
| 2026-05-07 16:47 | 32.81457 | 104.29718 | 34364 ft | 518 kts | 352° |
| 2026-05-07 16:48 | 32.88658 | 104.29372 | 34368 ft | 518 kts | 352° |
| 2026-05-07 16:48 | 32.95879 | 104.29026 | 34361 ft | 520 kts | 352° |
| 2026-05-07 16:49 | 33.03096 | 104.28675 | 34356 ft | 519 kts | 352° |
| 2026-05-07 16:49 | 33.10321 | 104.28322 | 34343 ft | 520 kts | 352° |
| 2026-05-07 16:50 | 33.17566 | 104.27976 | 34369 ft | 522 kts | 352° |
| 2026-05-07 16:50 | 33.24794 | 104.27546 | 34346 ft | 516 kts | 347° |
| 2026-05-07 16:51 | 33.31607 | 104.25433 | 34363 ft | 498 kts | 329° |
| 2026-05-07 16:51 | 33.34564 | 104.23501 | 34587 ft | 485 kts | 319° |
| 2026-05-07 16:51 | 33.37216 | 104.21011 | 34968 ft | 471 kts | 310° |
| 2026-05-07 16:51 | 33.39383 | 104.18180 | 35477 ft | 454 kts | 301° |
| 2026-05-07 16:52 | 33.41098 | 104.15135 | 35876 ft | 443 kts | 295° |
| 2026-05-07 16:52 | 33.42646 | 104.11907 | 36111 ft | 440 kts | 293° |
| 2026-05-07 16:52 | 33.44077 | 104.08730 | 36315 ft | 439 kts | 292° |
| 2026-05-07 16:53 | 33.46920 | 104.02218 | 36374 ft | 445 kts | 292° |
| 2026-05-07 16:53 | 33.49792 | 103.95662 | 36375 ft | 444 kts | 292° |
| 2026-05-07 16:54 | 33.52689 | 103.89140 | 36381 ft | 444 kts | 292° |
| 2026-05-07 16:54 | 33.55604 | 103.82600 | 36366 ft | 445 kts | 293° |
| 2026-05-07 16:55 | 33.58518 | 103.76029 | 36375 ft | 445 kts | 292° |
| 2026-05-07 16:55 | 33.61423 | 103.69463 | 36370 ft | 446 kts | 292° |
| 2026-05-07 16:56 | 33.64329 | 103.62901 | 36367 ft | 446 kts | 293° |
| 2026-05-07 16:56 | 33.68699 | 103.53010 | 36358 ft | 447 kts | 292° |
| 2026-05-07 16:57 | 33.71600 | 103.46401 | 36359 ft | 449 kts | 292° |
| 2026-05-07 16:57 | 33.74502 | 103.39784 | 36380 ft | 451 kts | 292° |
| 2026-05-07 16:58 | 33.77424 | 103.33118 | 36362 ft | 450 kts | 292° |
| 2026-05-07 16:58 | 33.80350 | 103.26453 | 36361 ft | 451 kts | 292° |
| 2026-05-07 16:59 | 33.83262 | 103.19776 | 36353 ft | 450 kts | 292° |
| 2026-05-07 16:59 | 33.86165 | 103.13106 | 36359 ft | 450 kts | 292° |
| 2026-05-07 17:00 | 33.89077 | 103.06405 | 36362 ft | 454 kts | 292° |
| 2026-05-07 17:00 | 33.92011 | 102.99645 | 36357 ft | 455 kts | 292° |
| 2026-05-07 17:01 | 33.94921 | 102.92936 | 36358 ft | 455 kts | 292° |
| 2026-05-07 17:01 | 33.97846 | 102.86172 | 36357 ft | 455 kts | 292° |
| 2026-05-07 17:02 | 34.00767 | 102.79405 | 36358 ft | 455 kts | 292° |
| 2026-05-07 17:02 | 34.03685 | 102.72631 | 36363 ft | 455 kts | 292° |
| 2026-05-07 17:03 | 34.06592 | 102.65870 | 36360 ft | 454 kts | 292° |
| 2026-05-07 17:03 | 34.09499 | 102.59090 | 36369 ft | 454 kts | 292° |
| 2026-05-07 17:04 | 34.12371 | 102.52384 | 36363 ft | 453 kts | 292° |
| 2026-05-07 17:04 | 34.15255 | 102.45638 | 36370 ft | 452 kts | 292° |
| 2026-05-07 17:05 | 34.18134 | 102.38889 | 36374 ft | 452 kts | 292° |
| 2026-05-07 17:05 | 34.21045 | 102.32134 | 36374 ft | 454 kts | 293° |
| 2026-05-07 17:06 | 34.24035 | 102.25421 | 36382 ft | 454 kts | 293° |
| 2026-05-07 17:06 | 34.27030 | 102.18703 | 36382 ft | 454 kts | 293° |
| 2026-05-07 17:07 | 34.30013 | 102.11969 | 36385 ft | 455 kts | 293° |
| 2026-05-07 17:07 | 34.32986 | 102.05219 | 36387 ft | 453 kts | 293° |
| 2026-05-07 17:08 | 34.35945 | 101.98483 | 36380 ft | 454 kts | 293° |
| 2026-05-07 17:08 | 34.38902 | 101.91734 | 36385 ft | 453 kts | 292° |
| 2026-05-07 17:09 | 34.41862 | 101.84994 | 36396 ft | 453 kts | 293° |
| 2026-05-07 17:09 | 34.44806 | 101.78250 | 36378 ft | 453 kts | 293° |
| 2026-05-07 17:10 | 34.47742 | 101.71511 | 36364 ft | 452 kts | 293° |
| 2026-05-07 17:10 | 34.50664 | 101.64795 | 36369 ft | 453 kts | 293° |
| 2026-05-07 17:11 | 34.53605 | 101.58022 | 36366 ft | 454 kts | 293° |
| 2026-05-07 17:11 | 34.56547 | 101.51236 | 36368 ft | 455 kts | 293° |
| 2026-05-07 17:12 | 34.59487 | 101.44445 | 36368 ft | 455 kts | 293° |
| 2026-05-07 17:12 | 34.62421 | 101.37650 | 36369 ft | 455 kts | 293° |
| 2026-05-07 17:13 | 34.65355 | 101.30841 | 36378 ft | 454 kts | 293° |
| 2026-05-07 17:13 | 34.68281 | 101.24040 | 36376 ft | 455 kts | 293° |
| 2026-05-07 17:14 | 34.71207 | 101.17224 | 36372 ft | 455 kts | 293° |
| 2026-05-07 17:14 | 34.74130 | 101.10400 | 36381 ft | 455 kts | 293° |
| 2026-05-07 17:15 | 34.77045 | 101.03580 | 36380 ft | 453 kts | 293° |
| 2026-05-07 17:15 | 34.79945 | 100.96788 | 36378 ft | 452 kts | 293° |
| 2026-05-07 17:16 | 34.82843 | 100.89983 | 36381 ft | 453 kts | 293° |
| 2026-05-07 17:16 | 34.85716 | 100.83221 | 36378 ft | 453 kts | 293° |
| 2026-05-07 17:17 | 34.88600 | 100.76422 | 36378 ft | 452 kts | 293° |
| 2026-05-07 17:17 | 34.91478 | 100.69616 | 36370 ft | 452 kts | 293° |
| 2026-05-07 17:18 | 34.94359 | 100.62795 | 36367 ft | 453 kts | 293° |
| 2026-05-07 17:18 | 34.97228 | 100.55965 | 36367 ft | 452 kts | 292° |
| 2026-05-07 17:19 | 35.00091 | 100.49147 | 36356 ft | 452 kts | 292° |
| 2026-05-07 17:19 | 35.02965 | 100.42323 | 36351 ft | 452 kts | 292° |
| 2026-05-07 17:20 | 35.05350 | 100.36647 | 36346 ft | 453 kts | 292° |
| 2026-05-07 17:20 | 35.08693 | 100.28661 | 36348 ft | 451 kts | 292° |
| 2026-05-07 17:21 | 35.11061 | 100.22992 | 36354 ft | 450 kts | 292° |
| 2026-05-07 17:21 | 35.13914 | 100.16162 | 36350 ft | 451 kts | 292° |
| 2026-05-07 17:22 | 35.16749 | 100.09326 | 36358 ft | 451 kts | 292° |
| 2026-05-07 17:22 | 35.20037 | 100.01393 | 36360 ft | 450 kts | 292° |
| 2026-05-07 17:23 | 35.22385 | 99.95722 | 36363 ft | 450 kts | 292° |
| 2026-05-07 17:23 | 35.25209 | 99.88884 | 36360 ft | 451 kts | 292° |
| 2026-05-07 17:24 | 35.28030 | 99.82042 | 36365 ft | 450 kts | 292° |
| 2026-05-07 17:24 | 35.30852 | 99.75188 | 36369 ft | 451 kts | 292° |
| 2026-05-07 17:25 | 35.33670 | 99.68323 | 36380 ft | 451 kts | 292° |
| 2026-05-07 17:25 | 35.36471 | 99.61491 | 36377 ft | 451 kts | 292° |
| 2026-05-07 17:26 | 35.39286 | 99.54626 | 36384 ft | 450 kts | 291° |
| 2026-05-07 17:26 | 35.42078 | 99.47772 | 36381 ft | 449 kts | 291° |
| 2026-05-07 17:27 | 35.44871 | 99.40901 | 36379 ft | 449 kts | 292° |
| 2026-05-07 17:27 | 35.47659 | 99.34041 | 36374 ft | 450 kts | 291° |
| 2026-05-07 17:28 | 35.50450 | 99.27163 | 36385 ft | 450 kts | 291° |
| 2026-05-07 17:28 | 35.53233 | 99.20287 | 36375 ft | 449 kts | 291° |
| 2026-05-07 17:29 | 35.56010 | 99.13407 | 36370 ft | 450 kts | 291° |
| 2026-05-07 17:29 | 35.58785 | 99.06519 | 36364 ft | 450 kts | 291° |
| 2026-05-07 17:30 | 35.61558 | 98.99624 | 36359 ft | 450 kts | 291° |
| 2026-05-07 17:30 | 35.64330 | 98.92715 | 36359 ft | 450 kts | 291° |
| 2026-05-07 17:31 | 35.67093 | 98.85803 | 36362 ft | 450 kts | 291° |
| 2026-05-07 17:31 | 35.69837 | 98.78942 | 36363 ft | 449 kts | 291° |
| 2026-05-07 17:32 | 35.72594 | 98.72036 | 36362 ft | 449 kts | 291° |
| 2026-05-07 17:32 | 35.75345 | 98.65123 | 36364 ft | 450 kts | 291° |
| 2026-05-07 17:33 | 35.78099 | 98.58185 | 36365 ft | 451 kts | 291° |
| 2026-05-07 17:33 | 35.80846 | 98.51257 | 36368 ft | 450 kts | 291° |
| 2026-05-07 17:34 | 35.83591 | 98.44315 | 36366 ft | 450 kts | 291° |
| 2026-05-07 17:34 | 35.86315 | 98.37382 | 36369 ft | 449 kts | 291° |
| 2026-05-07 17:35 | 35.89040 | 98.30440 | 36364 ft | 450 kts | 291° |
| 2026-05-07 17:35 | 35.91784 | 98.23479 | 36357 ft | 451 kts | 291° |
| 2026-05-07 17:36 | 35.94505 | 98.16556 | 36352 ft | 451 kts | 291° |
| 2026-05-07 17:36 | 35.97250 | 98.09535 | 36356 ft | 451 kts | 291° |
| 2026-05-07 17:37 | 35.99957 | 98.02597 | 36336 ft | 450 kts | 291° |
| 2026-05-07 17:37 | 36.02668 | 97.95639 | 36332 ft | 449 kts | 291° |
| 2026-05-07 17:38 | 36.05367 | 97.88694 | 36310 ft | 449 kts | 291° |
| 2026-05-07 17:38 | 36.08063 | 97.81740 | 36310 ft | 449 kts | 291° |
| 2026-05-07 17:39 | 36.10760 | 97.74770 | 36316 ft | 449 kts | 291° |
| 2026-05-07 17:39 | 36.13448 | 97.67808 | 36294 ft | 449 kts | 291° |
| 2026-05-07 17:40 | 36.16141 | 97.60842 | 36294 ft | 449 kts | 292° |
| 2026-05-07 17:40 | 36.18932 | 97.53914 | 36281 ft | 449 kts | 292° |
| 2026-05-07 17:41 | 36.21729 | 97.47057 | 36284 ft | 449 kts | 292° |
| 2026-05-07 17:41 | 36.24526 | 97.40146 | 36262 ft | 449 kts | 292° |
| 2026-05-07 17:42 | 36.27307 | 97.33227 | 36262 ft | 449 kts | 292° |
| 2026-05-07 17:42 | 36.30089 | 97.26282 | 36251 ft | 449 kts | 292° |
| 2026-05-07 17:43 | 36.32859 | 97.19351 | 36254 ft | 449 kts | 292° |
| 2026-05-07 17:43 | 36.35611 | 97.12452 | 36235 ft | 449 kts | 292° |
| 2026-05-07 17:44 | 36.38375 | 97.05510 | 36235 ft | 449 kts | 292° |
| 2026-05-07 17:44 | 36.41135 | 96.98563 | 36232 ft | 449 kts | 292° |
| 2026-05-07 17:45 | 36.43889 | 96.91614 | 36232 ft | 448 kts | 292° |
| 2026-05-07 17:45 | 36.46641 | 96.84657 | 36221 ft | 449 kts | 292° |
| 2026-05-07 17:46 | 36.49392 | 96.77686 | 36219 ft | 449 kts | 292° |
| 2026-05-07 17:46 | 36.52140 | 96.70708 | 36218 ft | 449 kts | 292° |
| 2026-05-07 17:47 | 36.54882 | 96.63731 | 36218 ft | 449 kts | 291° |
| 2026-05-07 17:47 | 36.57624 | 96.56751 | 36217 ft | 449 kts | 292° |
| 2026-05-07 17:48 | 36.60384 | 96.49855 | 36205 ft | 448 kts | 292° |
| 2026-05-07 17:48 | 36.63168 | 96.42927 | 36205 ft | 448 kts | 292° |
| 2026-05-07 17:49 | 36.65949 | 96.35972 | 36202 ft | 448 kts | 292° |
| 2026-05-07 17:49 | 36.68725 | 96.29004 | 36205 ft | 448 kts | 292° |
| 2026-05-07 17:50 | 36.71492 | 96.22036 | 36199 ft | 448 kts | 292° |
| 2026-05-07 17:50 | 36.74256 | 96.15062 | 36199 ft | 448 kts | 292° |
| 2026-05-07 17:51 | 36.77011 | 96.08095 | 36211 ft | 448 kts | 292° |
| 2026-05-07 17:51 | 36.79775 | 96.01123 | 36206 ft | 448 kts | 292° |
| 2026-05-07 17:52 | 36.82549 | 95.94167 | 36207 ft | 448 kts | 292° |
| 2026-05-07 17:52 | 36.85321 | 95.87204 | 36217 ft | 448 kts | 292° |
| 2026-05-07 17:53 | 36.88060 | 95.80304 | 36201 ft | 445 kts | 292° |
| 2026-05-07 17:53 | 36.90804 | 95.73367 | 36206 ft | 445 kts | 292° |
| 2026-05-07 17:54 | 36.93543 | 95.66430 | 36224 ft | 445 kts | 291° |
| 2026-05-07 17:54 | 36.96278 | 95.59485 | 36206 ft | 445 kts | 291° |
| 2026-05-07 17:55 | 36.99009 | 95.52537 | 36209 ft | 445 kts | 291° |
| 2026-05-07 17:55 | 37.01761 | 95.45597 | 36210 ft | 445 kts | 292° |
| 2026-05-07 17:56 | 37.04581 | 95.38693 | 36224 ft | 446 kts | 292° |
| 2026-05-07 17:56 | 37.07404 | 95.31786 | 36213 ft | 446 kts | 292° |
| 2026-05-07 17:57 | 37.09743 | 95.26030 | 36209 ft | 446 kts | 292° |
| 2026-05-07 17:57 | 37.13023 | 95.17916 | 36216 ft | 446 kts | 292° |
| 2026-05-07 17:58 | 37.15817 | 95.10986 | 36210 ft | 445 kts | 292° |
| 2026-05-07 17:58 | 37.18589 | 95.04095 | 36211 ft | 445 kts | 292° |
| 2026-05-07 17:59 | 37.21374 | 94.97160 | 36214 ft | 445 kts | 292° |
| 2026-05-07 17:59 | 37.24154 | 94.90223 | 36218 ft | 445 kts | 291° |
| 2026-05-07 18:00 | 37.26932 | 94.83273 | 36221 ft | 445 kts | 291° |
| 2026-05-07 18:00 | 37.29707 | 94.76315 | 36218 ft | 445 kts | 291° |
| 2026-05-07 18:01 | 37.32476 | 94.69356 | 36221 ft | 445 kts | 291° |
| 2026-05-07 18:01 | 37.35222 | 94.62439 | 36225 ft | 445 kts | 291° |
| 2026-05-07 18:02 | 37.39362 | 94.51985 | 36245 ft | 446 kts | 291° |
| 2026-05-07 18:03 | 37.42121 | 94.44999 | 36229 ft | 446 kts | 291° |
| 2026-05-07 18:03 | 37.44877 | 94.38005 | 36232 ft | 446 kts | 291° |
| 2026-05-07 18:04 | 37.47635 | 94.30990 | 36234 ft | 446 kts | 291° |
| 2026-05-07 18:04 | 37.50383 | 94.23986 | 36238 ft | 446 kts | 291° |
| 2026-05-07 18:05 | 37.53125 | 94.16978 | 36239 ft | 447 kts | 291° |
| 2026-05-07 18:05 | 37.55874 | 94.09938 | 36249 ft | 448 kts | 291° |
| 2026-05-07 18:06 | 37.58621 | 94.02888 | 36249 ft | 448 kts | 291° |
| 2026-05-07 18:06 | 37.61366 | 93.95830 | 36259 ft | 448 kts | 290° |
| 2026-05-07 18:07 | 37.64083 | 93.88824 | 36259 ft | 448 kts | 290° |
| 2026-05-07 18:07 | 37.66834 | 93.81716 | 36259 ft | 447 kts | 290° |
| 2026-05-07 18:08 | 37.69547 | 93.74691 | 36268 ft | 448 kts | 290° |
| 2026-05-07 18:08 | 37.72279 | 93.67598 | 36267 ft | 449 kts | 290° |
| 2026-05-07 18:09 | 37.75006 | 93.60503 | 36270 ft | 449 kts | 290° |
| 2026-05-07 18:09 | 37.77729 | 93.53402 | 36267 ft | 449 kts | 290° |
| 2026-05-07 18:10 | 37.80447 | 93.46296 | 36284 ft | 449 kts | 290° |
| 2026-05-07 18:10 | 37.82703 | 93.40387 | 36284 ft | 449 kts | 290° |
| 2026-05-07 18:11 | 37.85855 | 93.32111 | 36298 ft | 449 kts | 290° |
| 2026-05-07 18:11 | 37.88559 | 93.24996 | 36295 ft | 449 kts | 290° |
| 2026-05-07 18:12 | 37.91262 | 93.17866 | 36325 ft | 449 kts | 290° |
| 2026-05-07 18:12 | 37.93961 | 93.10723 | 36305 ft | 451 kts | 290° |
| 2026-05-07 18:13 | 37.96668 | 93.03548 | 36321 ft | 452 kts | 290° |
| 2026-05-07 18:13 | 37.98940 | 92.97512 | 36309 ft | 455 kts | 290° |
| 2026-05-07 18:14 | 38.01643 | 92.90318 | 36315 ft | 455 kts | 290° |
| 2026-05-07 18:14 | 38.04361 | 92.83070 | 36323 ft | 455 kts | 290° |
| 2026-05-07 18:15 | 38.07077 | 92.75805 | 36321 ft | 455 kts | 290° |
| 2026-05-07 18:15 | 38.09788 | 92.68539 | 36320 ft | 455 kts | 290° |
| 2026-05-07 18:16 | 38.12498 | 92.61253 | 36324 ft | 458 kts | 291° |
| 2026-05-07 18:16 | 38.15223 | 92.53910 | 36329 ft | 460 kts | 291° |
| 2026-05-07 18:17 | 38.17894 | 92.46527 | 36321 ft | 460 kts | 289° |
| 2026-05-07 18:17 | 38.20141 | 92.38895 | 36327 ft | 461 kts | 286° |
| 2026-05-07 18:18 | 38.22283 | 92.31228 | 36324 ft | 461 kts | 287° |
| 2026-05-07 18:18 | 38.24486 | 92.23560 | 36336 ft | 461 kts | 287° |
| 2026-05-07 18:19 | 38.26727 | 92.15907 | 36330 ft | 462 kts | 288° |
| 2026-05-07 18:19 | 38.28959 | 92.08303 | 36336 ft | 461 kts | 287° |
| 2026-05-07 18:20 | 38.31200 | 92.00644 | 36337 ft | 461 kts | 287° |
| 2026-05-07 18:20 | 38.33435 | 91.92974 | 36344 ft | 461 kts | 287° |
| 2026-05-07 18:21 | 38.35662 | 91.85300 | 36343 ft | 463 kts | 288° |
| 2026-05-07 18:21 | 38.37893 | 91.77597 | 36350 ft | 464 kts | 288° |
| 2026-05-07 18:22 | 38.40125 | 91.69869 | 36351 ft | 464 kts | 288° |
| 2026-05-07 18:22 | 38.42350 | 91.62138 | 36358 ft | 465 kts | 288° |
| 2026-05-07 18:23 | 38.44579 | 91.54370 | 36359 ft | 467 kts | 288° |
| 2026-05-07 18:23 | 38.46815 | 91.46557 | 36373 ft | 470 kts | 289° |
| 2026-05-07 18:24 | 38.49059 | 91.38698 | 36370 ft | 472 kts | 289° |
| 2026-05-07 18:24 | 38.51300 | 91.30825 | 36384 ft | 472 kts | 289° |
| 2026-05-07 18:25 | 38.53521 | 91.22998 | 36388 ft | 472 kts | 289° |
| 2026-05-07 18:25 | 38.55753 | 91.15107 | 36395 ft | 472 kts | 288° |
| 2026-05-07 18:26 | 38.57979 | 91.07213 | 36402 ft | 474 kts | 289° |
| 2026-05-07 18:26 | 38.60215 | 90.99262 | 36420 ft | 475 kts | 289° |
| 2026-05-07 18:27 | 38.62445 | 90.91306 | 36435 ft | 475 kts | 289° |
| 2026-05-07 18:27 | 38.64669 | 90.83349 | 36435 ft | 475 kts | 289° |
| 2026-05-07 18:28 | 38.66886 | 90.75392 | 36440 ft | 476 kts | 290° |
| 2026-05-07 18:28 | 38.69132 | 90.67384 | 36440 ft | 479 kts | 291° |
| 2026-05-07 18:29 | 38.71657 | 90.59468 | 36440 ft | 480 kts | 293° |
| 2026-05-07 18:29 | 38.74247 | 90.51649 | 36442 ft | 480 kts | 293° |
| 2026-05-07 18:30 | 38.76831 | 90.43705 | 36440 ft | 480 kts | 292° |
| 2026-05-07 18:30 | 38.79349 | 90.35836 | 36430 ft | 480 kts | 292° |
| 2026-05-07 18:31 | 38.81876 | 90.27890 | 36428 ft | 481 kts | 292° |
| 2026-05-07 18:31 | 38.84394 | 90.19950 | 36424 ft | 481 kts | 292° |
| 2026-05-07 18:32 | 38.86905 | 90.12010 | 36396 ft | 481 kts | 292° |
| 2026-05-07 18:32 | 38.89416 | 90.04053 | 36393 ft | 481 kts | 292° |
| 2026-05-07 18:33 | 38.91921 | 89.96093 | 36382 ft | 481 kts | 292° |
| 2026-05-07 18:33 | 38.94408 | 89.88169 | 36353 ft | 481 kts | 292° |
| 2026-05-07 18:34 | 38.96902 | 89.80199 | 36352 ft | 481 kts | 292° |
| 2026-05-07 18:34 | 38.99390 | 89.72222 | 36349 ft | 480 kts | 292° |
| 2026-05-07 18:35 | 39.01877 | 89.64231 | 36339 ft | 481 kts | 292° |
| 2026-05-07 18:35 | 39.04356 | 89.56239 | 36297 ft | 480 kts | 292° |
| 2026-05-07 18:36 | 39.06826 | 89.48253 | 36282 ft | 481 kts | 292° |
| 2026-05-07 18:36 | 39.09296 | 89.40244 | 36279 ft | 481 kts | 292° |
| 2026-05-07 18:37 | 39.11760 | 89.32231 | 36264 ft | 481 kts | 292° |
| 2026-05-07 18:37 | 39.14220 | 89.24207 | 36224 ft | 482 kts | 292° |
| 2026-05-07 18:38 | 39.16674 | 89.16180 | 36210 ft | 481 kts | 292° |
| 2026-05-07 18:38 | 39.19126 | 89.08137 | 36197 ft | 481 kts | 292° |
| 2026-05-07 18:39 | 39.21567 | 89.00105 | 36179 ft | 481 kts | 292° |
| 2026-05-07 18:39 | 39.23988 | 88.92115 | 36169 ft | 482 kts | 292° |
| 2026-05-07 18:40 | 39.26420 | 88.84065 | 36164 ft | 481 kts | 292° |
| 2026-05-07 18:40 | 39.28851 | 88.75996 | 36164 ft | 483 kts | 292° |
| 2026-05-07 18:41 | 39.31280 | 88.67908 | 36150 ft | 483 kts | 292° |
| 2026-05-07 18:41 | 39.33703 | 88.59817 | 36150 ft | 483 kts | 292° |
| 2026-05-07 18:42 | 39.36105 | 88.51770 | 36149 ft | 483 kts | 292° |
| 2026-05-07 18:42 | 39.38515 | 88.43673 | 36145 ft | 483 kts | 292° |
| 2026-05-07 18:43 | 39.40921 | 88.35566 | 36143 ft | 483 kts | 291° |
| 2026-05-07 18:43 | 39.43321 | 88.27451 | 36145 ft | 483 kts | 291° |
| 2026-05-07 18:44 | 39.45719 | 88.19321 | 36146 ft | 483 kts | 291° |
| 2026-05-07 18:44 | 39.48114 | 88.11175 | 36142 ft | 483 kts | 291° |
| 2026-05-07 18:45 | 39.50502 | 88.03030 | 36142 ft | 483 kts | 291° |
| 2026-05-07 18:45 | 39.52879 | 87.94897 | 36143 ft | 483 kts | 291° |
| 2026-05-07 18:46 | 39.55253 | 87.86746 | 36143 ft | 483 kts | 291° |
| 2026-05-07 18:46 | 39.57626 | 87.78578 | 36143 ft | 484 kts | 291° |
| 2026-05-07 18:47 | 39.59975 | 87.70464 | 36137 ft | 484 kts | 291° |
| 2026-05-07 18:47 | 39.62348 | 87.62246 | 36144 ft | 484 kts | 291° |
| 2026-05-07 18:48 | 39.64685 | 87.54125 | 36146 ft | 484 kts | 291° |
| 2026-05-07 18:48 | 39.67030 | 87.45948 | 36145 ft | 484 kts | 291° |
| 2026-05-07 18:49 | 39.69373 | 87.37754 | 36143 ft | 484 kts | 291° |
| 2026-05-07 18:49 | 39.71710 | 87.29556 | 36139 ft | 484 kts | 291° |
| 2026-05-07 18:50 | 39.74040 | 87.21358 | 36146 ft | 484 kts | 291° |
| 2026-05-07 18:50 | 39.76362 | 87.13161 | 36144 ft | 484 kts | 291° |
| 2026-05-07 18:51 | 39.78682 | 87.04944 | 36149 ft | 484 kts | 290° |
| 2026-05-07 18:51 | 39.80995 | 86.96726 | 36147 ft | 484 kts | 290° |
| 2026-05-07 18:52 | 39.83301 | 86.88508 | 36148 ft | 484 kts | 290° |
| 2026-05-07 18:52 | 39.85603 | 86.80280 | 36149 ft | 484 kts | 290° |
| 2026-05-07 18:53 | 39.87898 | 86.72048 | 36153 ft | 484 kts | 290° |
| 2026-05-07 18:53 | 39.90189 | 86.63804 | 36159 ft | 484 kts | 290° |
| 2026-05-07 18:54 | 39.92472 | 86.55562 | 36153 ft | 484 kts | 290° |
| 2026-05-07 18:54 | 39.94739 | 86.47354 | 36162 ft | 484 kts | 290° |
| 2026-05-07 18:55 | 39.97013 | 86.39090 | 36161 ft | 484 kts | 290° |
| 2026-05-07 18:55 | 39.99282 | 86.30820 | 36158 ft | 484 kts | 290° |
| 2026-05-07 18:56 | 40.01544 | 86.22546 | 36159 ft | 484 kts | 290° |
| 2026-05-07 18:56 | 40.03803 | 86.14261 | 36162 ft | 484 kts | 290° |
| 2026-05-07 18:57 | 40.06055 | 86.05971 | 36160 ft | 485 kts | 290° |
| 2026-05-07 18:57 | 40.08293 | 85.97666 | 36162 ft | 485 kts | 289° |
| 2026-05-07 18:58 | 40.10212 | 85.89221 | 36161 ft | 486 kts | 286° |
| 2026-05-07 18:58 | 40.11995 | 85.80701 | 36160 ft | 486 kts | 286° |
| 2026-05-07 18:59 | 40.13812 | 85.72195 | 36160 ft | 486 kts | 287° |
| 2026-05-07 18:59 | 40.15660 | 85.63705 | 36162 ft | 485 kts | 287° |
| 2026-05-07 19:00 | 40.17514 | 85.55217 | 36164 ft | 486 kts | 287° |
| 2026-05-07 19:00 | 40.19350 | 85.46778 | 36171 ft | 486 kts | 287° |
| 2026-05-07 19:01 | 40.20894 | 85.39649 | 36157 ft | 486 kts | 287° |
| 2026-05-07 19:01 | 40.22717 | 85.31194 | 36163 ft | 486 kts | 287° |
| 2026-05-07 19:02 | 40.24548 | 85.22669 | 36158 ft | 486 kts | 287° |
| 2026-05-07 19:02 | 40.26374 | 85.14135 | 36162 ft | 486 kts | 287° |
| 2026-05-07 19:03 | 40.28194 | 85.05593 | 36160 ft | 486 kts | 287° |
| 2026-05-07 19:03 | 40.30006 | 84.97056 | 36158 ft | 487 kts | 287° |
| 2026-05-07 19:04 | 40.31812 | 84.88514 | 36158 ft | 487 kts | 287° |
| 2026-05-07 19:04 | 40.33613 | 84.79961 | 36159 ft | 487 kts | 287° |
| 2026-05-07 19:05 | 40.35398 | 84.71446 | 36161 ft | 487 kts | 287° |
| 2026-05-07 19:05 | 40.37184 | 84.62892 | 36153 ft | 487 kts | 287° |
| 2026-05-07 19:06 | 40.38969 | 84.54312 | 36169 ft | 487 kts | 287° |
| 2026-05-07 19:06 | 40.41634 | 84.41435 | 36166 ft | 487 kts | 287° |
| 2026-05-07 19:07 | 40.43403 | 84.32842 | 36168 ft | 487 kts | 287° |
| 2026-05-07 19:07 | 40.45167 | 84.24240 | 36148 ft | 487 kts | 287° |
| 2026-05-07 19:08 | 40.46922 | 84.15641 | 36163 ft | 488 kts | 287° |
| 2026-05-07 19:08 | 40.48661 | 84.07092 | 36164 ft | 488 kts | 287° |
| 2026-05-07 19:09 | 40.50405 | 83.98481 | 36145 ft | 488 kts | 287° |
| 2026-05-07 19:09 | 40.52146 | 83.89866 | 36146 ft | 487 kts | 287° |
| 2026-05-07 19:10 | 40.53945 | 83.81270 | 36152 ft | 487 kts | 287° |
| 2026-05-07 19:10 | 40.55762 | 83.72671 | 36150 ft | 487 kts | 287° |
| 2026-05-07 19:11 | 40.57560 | 83.64085 | 36144 ft | 487 kts | 287° |
| 2026-05-07 19:11 | 40.59344 | 83.55486 | 36146 ft | 487 kts | 287° |
| 2026-05-07 19:12 | 40.61120 | 83.46879 | 36148 ft | 488 kts | 287° |
| 2026-05-07 19:12 | 40.62891 | 83.38259 | 36143 ft | 488 kts | 287° |
| 2026-05-07 19:13 | 40.64657 | 83.29636 | 36144 ft | 488 kts | 287° |
| 2026-05-07 19:13 | 40.66404 | 83.21066 | 36147 ft | 488 kts | 287° |
| 2026-05-07 19:14 | 40.68160 | 83.12418 | 36141 ft | 488 kts | 287° |
| 2026-05-07 19:14 | 40.69907 | 83.03776 | 36142 ft | 488 kts | 287° |
| 2026-05-07 19:15 | 40.71648 | 82.95127 | 36138 ft | 489 kts | 287° |
| 2026-05-07 19:15 | 40.73385 | 82.86463 | 36139 ft | 489 kts | 287° |
| 2026-05-07 19:16 | 40.75122 | 82.77764 | 36131 ft | 490 kts | 287° |
| 2026-05-07 19:16 | 40.76849 | 82.69075 | 36140 ft | 490 kts | 287° |
| 2026-05-07 19:17 | 40.78561 | 82.60425 | 36139 ft | 490 kts | 287° |
| 2026-05-07 19:17 | 40.80277 | 82.51718 | 36140 ft | 490 kts | 287° |
| 2026-05-07 19:18 | 40.81984 | 82.43016 | 36143 ft | 490 kts | 287° |
| 2026-05-07 19:18 | 40.83687 | 82.34298 | 36134 ft | 490 kts | 287° |
| 2026-05-07 19:19 | 40.85379 | 82.25596 | 36139 ft | 490 kts | 287° |
| 2026-05-07 19:19 | 40.87070 | 82.16868 | 36136 ft | 490 kts | 287° |
| 2026-05-07 19:20 | 40.88752 | 82.08144 | 36138 ft | 490 kts | 286° |
| 2026-05-07 19:20 | 40.90427 | 81.99415 | 36137 ft | 490 kts | 286° |
| 2026-05-07 19:21 | 40.92096 | 81.90684 | 36143 ft | 490 kts | 286° |
| 2026-05-07 19:21 | 40.93760 | 81.81938 | 36139 ft | 490 kts | 286° |
| 2026-05-07 19:22 | 40.95403 | 81.73262 | 36137 ft | 490 kts | 286° |
| 2026-05-07 19:22 | 40.97057 | 81.64517 | 36129 ft | 490 kts | 287° |
| 2026-05-07 19:23 | 40.98950 | 81.55873 | 36142 ft | 488 kts | 289° |
| 2026-05-07 19:23 | 41.00965 | 81.47289 | 36142 ft | 488 kts | 289° |
| 2026-05-07 19:24 | 41.02943 | 81.38684 | 36137 ft | 488 kts | 289° |
| 2026-05-07 19:24 | 41.04880 | 81.30068 | 36142 ft | 488 kts | 289° |
| 2026-05-07 19:25 | 41.06794 | 81.21463 | 36142 ft | 486 kts | 289° |
| 2026-05-07 19:25 | 41.08697 | 81.12877 | 36142 ft | 485 kts | 289° |
| 2026-05-07 19:26 | 41.10593 | 81.04296 | 36145 ft | 485 kts | 289° |
| 2026-05-07 19:26 | 41.12484 | 80.95706 | 36145 ft | 485 kts | 289° |
| 2026-05-07 19:27 | 41.14368 | 80.87115 | 36145 ft | 484 kts | 289° |
| 2026-05-07 19:27 | 41.16241 | 80.78542 | 36152 ft | 483 kts | 289° |
| 2026-05-07 19:28 | 41.18092 | 80.70032 | 36151 ft | 483 kts | 289° |
| 2026-05-07 19:28 | 41.19950 | 80.61461 | 36151 ft | 483 kts | 288° |
| 2026-05-07 19:29 | 41.21800 | 80.52889 | 36144 ft | 483 kts | 288° |
| 2026-05-07 19:29 | 41.23647 | 80.44298 | 36153 ft | 483 kts | 288° |
| 2026-05-07 19:30 | 41.25485 | 80.35715 | 36157 ft | 483 kts | 288° |
| 2026-05-07 19:30 | 41.27320 | 80.27121 | 36156 ft | 483 kts | 288° |
| 2026-05-07 19:31 | 41.29132 | 80.18518 | 36166 ft | 483 kts | 288° |
| 2026-05-07 19:31 | 41.30932 | 80.09922 | 36161 ft | 482 kts | 288° |
| 2026-05-07 19:32 | 41.32728 | 80.01326 | 36169 ft | 482 kts | 288° |
| 2026-05-07 19:32 | 41.34518 | 79.92739 | 36181 ft | 481 kts | 287° |
| 2026-05-07 19:33 | 41.36297 | 79.84165 | 36180 ft | 480 kts | 287° |
| 2026-05-07 19:33 | 41.38068 | 79.75596 | 36183 ft | 479 kts | 287° |
| 2026-05-07 19:34 | 41.39811 | 79.67121 | 36201 ft | 477 kts | 287° |
| 2026-05-07 19:34 | 41.41559 | 79.58591 | 36197 ft | 477 kts | 287° |
| 2026-05-07 19:35 | 41.43299 | 79.50069 | 36204 ft | 477 kts | 287° |
| 2026-05-07 19:35 | 41.45032 | 79.41545 | 36216 ft | 477 kts | 287° |
| 2026-05-07 19:36 | 41.46758 | 79.33022 | 36242 ft | 476 kts | 287° |
| 2026-05-07 19:36 | 41.48477 | 79.24495 | 36266 ft | 476 kts | 286° |
| 2026-05-07 19:37 | 41.50188 | 79.15971 | 36272 ft | 476 kts | 286° |
| 2026-05-07 19:37 | 41.51897 | 79.07421 | 36327 ft | 477 kts | 286° |
| 2026-05-07 19:38 | 41.53596 | 78.98870 | 36313 ft | 476 kts | 286° |
| 2026-05-07 19:38 | 41.55292 | 78.90327 | 36339 ft | 475 kts | 286° |
| 2026-05-07 19:39 | 41.56054 | 78.86088 | 36446 ft | 476 kts | 281° |
| 2026-05-07 19:39 | 41.56440 | 78.81662 | 36788 ft | 473 kts | 274° |
| 2026-05-07 19:39 | 41.56466 | 78.77332 | 37082 ft | 471 kts | 271° |
| 2026-05-07 19:39 | 41.56390 | 78.72956 | 37285 ft | 471 kts | 270° |
| 2026-05-07 19:40 | 41.56262 | 78.68590 | 37455 ft | 471 kts | 269° |
| 2026-05-07 19:40 | 41.56109 | 78.64235 | 37745 ft | 467 kts | 269° |
| 2026-05-07 19:40 | 41.55948 | 78.59920 | 38029 ft | 464 kts | 269° |
| 2026-05-07 19:40 | 41.55787 | 78.55607 | 38155 ft | 464 kts | 269° |
| 2026-05-07 19:41 | 41.55632 | 78.51301 | 38278 ft | 465 kts | 269° |
| 2026-05-07 19:41 | 41.55480 | 78.46980 | 38305 ft | 467 kts | 269° |
| 2026-05-07 19:41 | 41.55177 | 78.38267 | 38305 ft | 471 kts | 269° |
| 2026-05-07 19:42 | 41.54870 | 78.29544 | 38305 ft | 470 kts | 269° |
| 2026-05-07 19:42 | 41.54555 | 78.20823 | 38308 ft | 470 kts | 269° |
| 2026-05-07 19:43 | 41.54235 | 78.12117 | 38320 ft | 470 kts | 269° |
| 2026-05-07 19:43 | 41.53906 | 78.03397 | 38314 ft | 470 kts | 269° |
| 2026-05-07 19:44 | 41.53569 | 77.94671 | 38302 ft | 470 kts | 269° |
| 2026-05-07 19:44 | 41.53229 | 77.86012 | 38311 ft | 470 kts | 269° |
| 2026-05-07 19:45 | 41.52881 | 77.77304 | 38311 ft | 470 kts | 269° |
| 2026-05-07 19:45 | 41.52528 | 77.68602 | 38312 ft | 470 kts | 269° |
| 2026-05-07 19:46 | 41.52167 | 77.59892 | 38309 ft | 470 kts | 269° |
| 2026-05-07 19:46 | 41.51799 | 77.51193 | 38301 ft | 469 kts | 269° |
| 2026-05-07 19:47 | 41.51426 | 77.42504 | 38303 ft | 469 kts | 269° |
| 2026-05-07 19:47 | 41.51047 | 77.33827 | 38296 ft | 468 kts | 269° |
| 2026-05-07 19:48 | 41.50661 | 77.25154 | 38296 ft | 468 kts | 269° |
| 2026-05-07 19:48 | 41.50269 | 77.16480 | 38290 ft | 468 kts | 269° |
| 2026-05-07 19:49 | 41.49938 | 77.09285 | 38284 ft | 467 kts | 269° |
| 2026-05-07 19:49 | 41.49535 | 77.00632 | 38270 ft | 467 kts | 269° |
| 2026-05-07 19:50 | 41.49124 | 76.91981 | 38267 ft | 467 kts | 269° |
| 2026-05-07 19:50 | 41.48707 | 76.83323 | 38258 ft | 468 kts | 268° |
| 2026-05-07 19:51 | 41.48282 | 76.74644 | 38252 ft | 470 kts | 268° |
| 2026-05-07 19:51 | 41.47854 | 76.66000 | 38246 ft | 471 kts | 268° |
| 2026-05-07 19:52 | 41.47412 | 76.57236 | 38231 ft | 471 kts | 268° |
| 2026-05-07 19:52 | 41.46967 | 76.48536 | 38212 ft | 470 kts | 268° |
| 2026-05-07 19:53 | 41.46515 | 76.39844 | 38215 ft | 469 kts | 268° |
| 2026-05-07 19:53 | 41.46061 | 76.31215 | 38206 ft | 469 kts | 268° |
| 2026-05-07 19:54 | 41.45595 | 76.22478 | 38208 ft | 469 kts | 268° |
| 2026-05-07 19:54 | 41.45128 | 76.13857 | 38187 ft | 469 kts | 268° |
| 2026-05-07 19:55 | 41.44648 | 76.05131 | 38182 ft | 469 kts | 268° |
| 2026-05-07 19:55 | 41.44168 | 75.96519 | 38182 ft | 469 kts | 268° |
| 2026-05-07 19:56 | 41.43679 | 75.87866 | 38174 ft | 468 kts | 268° |
| 2026-05-07 19:56 | 41.43183 | 75.79204 | 38179 ft | 468 kts | 267° |
| 2026-05-07 19:57 | 41.42682 | 75.70552 | 38187 ft | 468 kts | 267° |
| 2026-05-07 19:57 | 41.42176 | 75.61921 | 38194 ft | 467 kts | 267° |
| 2026-05-07 19:58 | 41.41664 | 75.53284 | 38184 ft | 467 kts | 267° |
| 2026-05-07 19:58 | 41.41146 | 75.44663 | 38179 ft | 467 kts | 267° |
| 2026-05-07 19:59 | 41.40621 | 75.36044 | 38198 ft | 467 kts | 267° |
| 2026-05-07 19:59 | 41.40089 | 75.27409 | 38197 ft | 467 kts | 267° |
| 2026-05-07 20:00 | 41.39551 | 75.18785 | 38187 ft | 467 kts | 267° |
| 2026-05-07 20:00 | 41.39006 | 75.10160 | 38194 ft | 467 kts | 267° |
| 2026-05-07 20:01 | 41.38460 | 75.01593 | 38193 ft | 468 kts | 267° |
| 2026-05-07 20:01 | 41.37902 | 74.92967 | 38189 ft | 468 kts | 266° |
| 2026-05-07 20:02 | 41.37339 | 74.84332 | 38193 ft | 468 kts | 266° |
| 2026-05-07 20:02 | 41.36770 | 74.75699 | 38188 ft | 468 kts | 266° |
| 2026-05-07 20:03 | 41.36189 | 74.67065 | 38195 ft | 468 kts | 266° |
| 2026-05-07 20:03 | 41.35604 | 74.58437 | 38188 ft | 468 kts | 266° |
| 2026-05-07 20:04 | 41.35013 | 74.49803 | 38189 ft | 468 kts | 266° |
| 2026-05-07 20:04 | 41.34414 | 74.41188 | 38195 ft | 467 kts | 266° |
| 2026-05-07 20:05 | 41.33814 | 74.32590 | 38197 ft | 466 kts | 266° |
| 2026-05-07 20:05 | 41.33211 | 74.24049 | 38195 ft | 466 kts | 266° |
| 2026-05-07 20:06 | 41.32598 | 74.15461 | 38196 ft | 466 kts | 266° |
| 2026-05-07 20:06 | 41.31977 | 74.06869 | 38192 ft | 466 kts | 266° |
| 2026-05-07 20:07 | 41.31356 | 73.98284 | 38179 ft | 466 kts | 267° |
| 2026-05-07 20:07 | 41.30954 | 73.89676 | 38181 ft | 466 kts | 269° |
| 2026-05-07 20:08 | 41.30654 | 73.81059 | 38195 ft | 466 kts | 269° |
| 2026-05-07 20:08 | 41.30320 | 73.72447 | 38185 ft | 466 kts | 268° |
| 2026-05-07 20:09 | 41.29952 | 73.63845 | 38182 ft | 466 kts | 268° |
| 2026-05-07 20:10 | 41.29372 | 73.50949 | 38166 ft | 466 kts | 268° |
| 2026-05-07 20:10 | 41.28981 | 73.42402 | 38160 ft | 466 kts | 268° |
| 2026-05-07 20:11 | 41.28581 | 73.33787 | 38147 ft | 466 kts | 268° |
| 2026-05-07 20:11 | 41.28175 | 73.25187 | 38156 ft | 466 kts | 268° |
| 2026-05-07 20:12 | 41.27763 | 73.16588 | 38146 ft | 466 kts | 268° |
| 2026-05-07 20:12 | 41.27344 | 73.07976 | 38141 ft | 466 kts | 268° |
| 2026-05-07 20:13 | 41.26919 | 72.99379 | 38144 ft | 466 kts | 268° |
| 2026-05-07 20:13 | 41.26487 | 72.90780 | 38129 ft | 466 kts | 268° |
| 2026-05-07 20:14 | 41.26049 | 72.82197 | 38125 ft | 465 kts | 267° |
| 2026-05-07 20:14 | 41.25607 | 72.73633 | 38105 ft | 465 kts | 267° |
| 2026-05-07 20:15 | 41.25157 | 72.65062 | 38103 ft | 465 kts | 267° |
| 2026-05-07 20:15 | 41.24705 | 72.56502 | 38092 ft | 464 kts | 267° |
| 2026-05-07 20:16 | 41.24239 | 72.47956 | 38081 ft | 463 kts | 267° |
| 2026-05-07 20:16 | 41.23762 | 72.39424 | 38078 ft | 463 kts | 267° |
| 2026-05-07 20:17 | 41.23279 | 72.30892 | 38058 ft | 463 kts | 267° |
| 2026-05-07 20:17 | 41.22794 | 72.22366 | 38053 ft | 462 kts | 266° |
| 2026-05-07 20:18 | 41.22305 | 72.13860 | 38057 ft | 462 kts | 266° |
| 2026-05-07 20:18 | 41.21820 | 72.05365 | 38046 ft | 461 kts | 266° |
| 2026-05-07 20:19 | 41.21328 | 71.96870 | 38040 ft | 461 kts | 266° |
| 2026-05-07 20:19 | 41.20829 | 71.88375 | 38029 ft | 461 kts | 266° |
| 2026-05-07 20:20 | 41.20326 | 71.79953 | 38019 ft | 460 kts | 266° |
| 2026-05-07 20:20 | 41.19816 | 71.71478 | 38020 ft | 460 kts | 266° |
| 2026-05-07 20:21 | 41.19292 | 71.63018 | 38007 ft | 460 kts | 266° |
| 2026-05-07 20:21 | 41.18762 | 71.54554 | 38003 ft | 460 kts | 266° |
| 2026-05-07 20:22 | 41.18228 | 71.46091 | 38018 ft | 460 kts | 266° |
| 2026-05-07 20:22 | 41.17688 | 71.37632 | 38019 ft | 460 kts | 266° |
| 2026-05-07 20:23 | 41.17142 | 71.29166 | 38031 ft | 460 kts | 266° |
| 2026-05-07 20:23 | 41.16590 | 71.20710 | 38059 ft | 460 kts | 265° |
| 2026-05-07 20:24 | 41.16031 | 71.12254 | 38075 ft | 460 kts | 265° |
| 2026-05-07 20:24 | 41.15467 | 71.03805 | 38077 ft | 460 kts | 265° |
| 2026-05-07 20:25 | 41.14899 | 70.95334 | 38085 ft | 460 kts | 265° |
| 2026-05-07 20:25 | 41.14327 | 70.86933 | 38114 ft | 460 kts | 265° |
| 2026-05-07 20:26 | 41.13744 | 70.78485 | 38114 ft | 460 kts | 265° |
| 2026-05-07 20:26 | 41.13152 | 70.70033 | 38115 ft | 460 kts | 265° |
| 2026-05-07 20:27 | 41.12552 | 70.61590 | 38132 ft | 460 kts | 265° |
| 2026-05-07 20:27 | 41.11949 | 70.53141 | 38136 ft | 460 kts | 265° |
| 2026-05-07 20:28 | 41.11340 | 70.44681 | 38128 ft | 460 kts | 265° |
| 2026-05-07 20:28 | 41.10724 | 70.36232 | 38131 ft | 461 kts | 265° |
| 2026-05-07 20:29 | 41.10108 | 70.27773 | 38121 ft | 460 kts | 265° |
| 2026-05-07 20:29 | 41.10282 | 70.19325 | 38094 ft | 459 kts | 275° |
| 2026-05-07 20:30 | 41.10959 | 70.10968 | 38109 ft | 459 kts | 276° |
| 2026-05-07 20:30 | 41.11718 | 70.02566 | 38085 ft | 459 kts | 276° |
| 2026-05-07 20:31 | 41.12469 | 69.94159 | 38096 ft | 460 kts | 276° |
| 2026-05-07 20:31 | 41.13200 | 69.85744 | 38057 ft | 459 kts | 276° |
| 2026-05-07 20:32 | 41.13919 | 69.77341 | 38033 ft | 458 kts | 276° |
| 2026-05-07 20:32 | 41.14629 | 69.68943 | 38032 ft | 457 kts | 276° |
| 2026-05-07 20:33 | 41.15334 | 69.60549 | 38006 ft | 457 kts | 276° |
| 2026-05-07 20:33 | 41.16033 | 69.52163 | 37987 ft | 457 kts | 276° |
| 2026-05-07 20:34 | 41.16724 | 69.43784 | 37998 ft | 455 kts | 276° |
| 2026-05-07 20:34 | 41.17402 | 69.35496 | 37968 ft | 454 kts | 276° |
| 2026-05-07 20:35 | 41.18077 | 69.27162 | 37973 ft | 454 kts | 276° |
| 2026-05-07 20:35 | 41.18710 | 69.18817 | 37967 ft | 454 kts | 273° |
| 2026-05-07 20:36 | 41.18937 | 69.10454 | 37962 ft | 453 kts | 271° |
| 2026-05-07 20:36 | 41.19028 | 69.03443 | 37963 ft | 453 kts | 271° |
| 2026-05-07 20:37 | 41.19214 | 68.93729 | 37962 ft | 453 kts | 272° |
| 2026-05-07 20:37 | 41.19856 | 68.85413 | 37942 ft | 453 kts | 276° |
| 2026-05-07 20:38 | 41.20506 | 68.78519 | 37955 ft | 452 kts | 277° |
| 2026-05-07 20:38 | 41.21307 | 68.70240 | 37945 ft | 452 kts | 277° |
| 2026-05-07 20:39 | 41.22098 | 68.61958 | 37946 ft | 452 kts | 276° |
| 2026-05-07 20:39 | 41.22875 | 68.53677 | 37940 ft | 452 kts | 276° |
| 2026-05-07 20:40 | 41.23644 | 68.45393 | 37933 ft | 451 kts | 276° |
| 2026-05-07 20:40 | 41.24406 | 68.37109 | 37933 ft | 451 kts | 276° |
| 2026-05-07 20:41 | 41.25161 | 68.28840 | 37934 ft | 451 kts | 276° |
| 2026-05-07 20:41 | 41.25906 | 68.20619 | 37932 ft | 451 kts | 276° |
| 2026-05-07 20:42 | 41.26650 | 68.12349 | 37927 ft | 451 kts | 276° |
| 2026-05-07 20:42 | 41.27387 | 68.04081 | 37924 ft | 450 kts | 276° |
| 2026-05-07 20:43 | 41.28120 | 67.95813 | 37927 ft | 450 kts | 276° |
| 2026-05-07 20:43 | 41.29229 | 67.87622 | 37919 ft | 451 kts | 280° |
| 2026-05-07 20:44 | 41.30486 | 67.79450 | 37924 ft | 451 kts | 281° |
| 2026-05-07 20:44 | 41.31762 | 67.71287 | 37920 ft | 451 kts | 281° |
| 2026-05-07 20:45 | 41.33030 | 67.63119 | 37915 ft | 451 kts | 280° |
| 2026-05-07 20:45 | 41.34287 | 67.54953 | 37922 ft | 451 kts | 280° |
| 2026-05-07 20:46 | 41.35534 | 67.46788 | 37913 ft | 449 kts | 280° |
| 2026-05-07 20:46 | 41.36774 | 67.38634 | 37917 ft | 449 kts | 280° |
| 2026-05-07 20:47 | 41.38007 | 67.30480 | 37913 ft | 449 kts | 280° |
| 2026-05-07 20:47 | 41.39233 | 67.22331 | 37910 ft | 449 kts | 280° |
| 2026-05-07 20:48 | 41.40455 | 67.14175 | 37900 ft | 449 kts | 280° |
| 2026-05-07 20:48 | 41.41670 | 67.06020 | 37909 ft | 449 kts | 280° |
| 2026-05-07 20:49 | 41.42878 | 66.97864 | 37891 ft | 449 kts | 280° |
| 2026-05-07 20:49 | 41.44083 | 66.89697 | 37902 ft | 449 kts | 279° |
| 2026-05-07 20:50 | 41.45273 | 66.81585 | 37900 ft | 450 kts | 279° |
| 2026-05-07 20:50 | 41.46470 | 66.73383 | 37903 ft | 451 kts | 279° |
| 2026-05-07 20:51 | 41.47661 | 66.65181 | 37900 ft | 451 kts | 279° |
| 2026-05-07 20:51 | 41.48263 | 66.56886 | 37890 ft | 449 kts | 271° |
| 2026-05-07 20:52 | 41.48352 | 66.48576 | 37892 ft | 448 kts | 269° |
| 2026-05-07 20:52 | 41.48353 | 66.40272 | 37893 ft | 448 kts | 269° |
| 2026-05-07 20:53 | 41.48346 | 66.31969 | 37890 ft | 447 kts | 269° |
| 2026-05-07 20:53 | 41.48345 | 66.23665 | 37883 ft | 448 kts | 269° |
| 2026-05-07 20:54 | 41.48344 | 66.15415 | 37899 ft | 448 kts | 269° |
| 2026-05-07 20:54 | 41.48337 | 66.07105 | 37887 ft | 448 kts | 269° |
| 2026-05-07 20:55 | 41.48324 | 65.98788 | 37868 ft | 448 kts | 269° |
| 2026-05-07 20:55 | 41.48305 | 65.90474 | 37864 ft | 448 kts | 269° |
| 2026-05-07 20:56 | 41.48279 | 65.82146 | 37862 ft | 450 kts | 269° |
| 2026-05-07 20:56 | 41.48240 | 65.73808 | 37863 ft | 450 kts | 268° |
| 2026-05-07 20:57 | 41.48144 | 65.65466 | 37872 ft | 450 kts | 268° |
| 2026-05-07 20:57 | 41.48034 | 65.57126 | 37874 ft | 449 kts | 268° |
| 2026-05-07 20:58 | 41.47926 | 65.48808 | 37859 ft | 448 kts | 268° |
| 2026-05-07 20:58 | 41.47818 | 65.40491 | 37874 ft | 448 kts | 268° |
| 2026-05-07 20:59 | 41.47706 | 65.32224 | 37879 ft | 448 kts | 268° |
| 2026-05-07 20:59 | 41.47587 | 65.23917 | 37872 ft | 447 kts | 268° |
| 2026-05-07 21:00 | 41.47461 | 65.15620 | 37881 ft | 447 kts | 268° |
| 2026-05-07 21:00 | 41.47329 | 65.07327 | 37885 ft | 447 kts | 268° |
| 2026-05-07 21:01 | 41.47192 | 64.99035 | 37881 ft | 447 kts | 268° |
| 2026-05-07 21:01 | 41.47049 | 64.90750 | 37884 ft | 446 kts | 268° |
| 2026-05-07 21:02 | 41.46900 | 64.82475 | 37889 ft | 446 kts | 268° |
| 2026-05-07 21:02 | 41.46747 | 64.74269 | 37890 ft | 446 kts | 268° |
| 2026-05-07 21:03 | 41.46586 | 64.66006 | 37899 ft | 446 kts | 268° |
| 2026-05-07 21:03 | 41.46420 | 64.57748 | 37906 ft | 446 kts | 268° |
| 2026-05-07 21:04 | 41.46248 | 64.49489 | 37901 ft | 446 kts | 268° |
| 2026-05-07 21:04 | 41.46069 | 64.41232 | 37909 ft | 445 kts | 267° |
| 2026-05-07 21:05 | 41.45885 | 64.32972 | 37918 ft | 445 kts | 267° |
| 2026-05-07 21:05 | 41.45696 | 64.24750 | 37912 ft | 443 kts | 267° |
| 2026-05-07 21:06 | 41.45501 | 64.16544 | 37913 ft | 443 kts | 267° |
| 2026-05-07 21:06 | 41.45301 | 64.08385 | 37916 ft | 443 kts | 267° |
| 2026-05-07 21:07 | 41.45095 | 64.00177 | 37916 ft | 441 kts | 267° |
| 2026-05-07 21:07 | 41.44884 | 63.92011 | 37922 ft | 440 kts | 267° |
| 2026-05-07 21:08 | 41.44668 | 63.83867 | 37924 ft | 440 kts | 267° |
| 2026-05-07 21:08 | 41.44446 | 63.75717 | 37923 ft | 440 kts | 267° |
| 2026-05-07 21:09 | 41.44218 | 63.67586 | 37928 ft | 438 kts | 267° |
| 2026-05-07 21:09 | 41.43979 | 63.59525 | 37931 ft | 438 kts | 267° |
| 2026-05-07 21:10 | 41.43728 | 63.51417 | 37933 ft | 438 kts | 267° |
| 2026-05-07 21:10 | 41.43470 | 63.43307 | 37929 ft | 438 kts | 267° |
| 2026-05-07 21:11 | 41.43209 | 63.35208 | 37940 ft | 437 kts | 267° |
| 2026-05-07 21:11 | 41.42806 | 63.23074 | 37943 ft | 437 kts | 267° |
| 2026-05-07 21:12 | 41.42531 | 63.14991 | 37941 ft | 437 kts | 267° |
| 2026-05-07 21:12 | 41.42253 | 63.06972 | 37943 ft | 435 kts | 266° |
| 2026-05-07 21:13 | 41.41967 | 62.98917 | 37946 ft | 435 kts | 266° |
| 2026-05-07 21:13 | 41.41676 | 62.90876 | 37946 ft | 435 kts | 266° |
| 2026-05-07 21:14 | 41.41379 | 62.82831 | 37953 ft | 434 kts | 266° |
| 2026-05-07 21:14 | 41.41079 | 62.74813 | 37953 ft | 432 kts | 266° |
| 2026-05-07 21:15 | 41.40773 | 62.66824 | 37954 ft | 431 kts | 266° |
| 2026-05-07 21:15 | 41.40462 | 62.58837 | 37958 ft | 431 kts | 266° |
| 2026-05-07 21:16 | 41.40254 | 62.53555 | 37956 ft | 432 kts | 266° |